M I D A S
Marine Information and Data Acquisition System
Tripno 1879 of the Zeeleeuw from 2010-05-11 05:12:52 to 2010-05-11 15:59:13
Back to CruiseResearch ActivitiesStationsMapUnderway DataData graphs

EquipmentUnitsComment
TimeDGPSUTC
LatitudeDGPSDM.mWGS84
LongitudeDGPSDM.mWGS84
TemperatureSBE03/SBE38deg celciusITS90
ConductivitySBE21S/mITS90
SalinitySBE21 Practical Salinity Units
ChlorophylAChelsea fluorimeterg/lCalibrated in Aceton
Missing or incorrect values are displayed as -999
Sea surface data collected by the RV Zeeleeuw from 2010-05-11 04:58:16 to 2010-05-11 16:06:18
                                                                                    Next 1000 lines
Time Latitude Longitude Temperature Conductivity Salinity ChlorophylA
2010-05-11 04:58:25 51°13.662 2°55.956 18.611 0.068805 0.41891 -1.000568
2010-05-11 04:58:30 51°13.663 2°55.952 18.7892 0.068805 0.418894 -1.035392
2010-05-11 04:58:36 51°13.664 2°55.947 18.7908 0.068805 0.41891 -1.000568
2010-05-11 04:58:40 51°13.665 2°55.944 18.7818 0.068805 0.418902 -1.000568
2010-05-11 04:58:47 51°13.667 2°55.936 18.7648 0.068805 0.418902 -1.000568
2010-05-11 04:58:52 51°13.669 2°55.93 18.7684 0.068805 0.418902 -1.000568
2010-05-11 04:58:58 51°13.671 2°55.922 18.7568 0.068805 0.418902 -1.035392
2010-05-11 04:59:04 51°13.674 2°55.913 18.7635 0.068805 0.418902 -1.000568
2010-05-11 04:59:09 51°13.676 2°55.906 18.7704 0.068805 0.418902 -1.000568
2010-05-11 04:59:14 51°13.678 2°55.898 18.7856 0.068805 0.418894 -1.000568
2010-05-11 04:59:19 51°13.68 2°55.889 18.8112 0.068805 0.418894 -1.000568
2010-05-11 04:59:24 51°13.682 2°55.88 18.8319 0.068805 0.418894 -1.000568
2010-05-11 04:59:29 51°13.684 2°55.871 18.8175 0.068805 0.418894 -1.035392
2010-05-11 04:59:34 51°13.686 2°55.862 18.8142 0.068805 0.418887 -1.000568
2010-05-11 04:59:39 51°13.688 2°55.853 18.7948 0.068805 0.418894 -1.035392
2010-05-11 04:59:44 51°13.69 2°55.844 18.8069 0.068805 0.418887 -1.000568
2010-05-11 04:59:49 51°13.691 2°55.836 18.8091 0.068805 0.418894 -1.000568
2010-05-11 04:59:54 51°13.693 2°55.827 18.8098 0.068805 0.418894 -1.000568
2010-05-11 04:59:59 51°13.694 2°55.818 18.8121 0.068805 0.418887 -1.000568
2010-05-11 05:00:04 51°13.695 2°55.81 18.816 0.068805 0.418887 -1.000568
2010-05-11 05:00:09 51°13.696 2°55.802 18.8233 0.068805 0.418887 -1.000568
2010-05-11 05:00:14 51°13.697 2°55.794 18.8409 0.068805 0.418879 -1.000568
2010-05-11 05:00:19 51°13.698 2°55.787 18.861 0.068805 0.418879 -1.000568
2010-05-11 05:00:24 51°13.699 2°55.779 18.85 0.068805 0.418879 -1.000568
2010-05-11 05:00:29 51°13.699 2°55.773 18.8244 0.068805 0.418871 -1.035392
2010-05-11 05:00:34 51°13.7 2°55.769 18.8579 0.068805 0.418871 -1.000568
2010-05-11 05:00:38 51°13.7 2°55.766 18.8649 0.068805 0.418863 -1.000568
2010-05-11 05:00:44 51°13.7 2°55.764 18.8488 0.068805 0.418855 -1.000568
2010-05-11 05:00:48 51°13.7 2°55.762 18.8445 0.068805 0.418871 -1.035392
2010-05-11 05:00:53 51°13.7 2°55.76 18.8471 0.068805 0.418871 -1.035392
2010-05-11 05:00:56 51°13.7 2°55.759 18.836 0.068805 0.418871 -1.035392
2010-05-11 05:01:03 51°13.7 2°55.757 18.8286 0.068805 0.418871 -1.000568
2010-05-11 05:01:08 51°13.7 2°55.755 18.841 0.068805 0.418863 -1.000568
2010-05-11 05:01:12 51°13.701 2°55.755 18.8589 0.068805 0.418863 -1.000568
2010-05-11 05:01:12 51°13.701 2°55.755 18.8589 0.068805 0.418863 -1.000568
2010-05-11 05:01:24 51°13.701 2°55.755 18.8561 0.068805 0.418863 -1.000568
2010-05-11 05:01:29 51°13.702 2°55.755 18.8346 0.068805 0.418863 -1.000568
2010-05-11 05:01:34 51°13.702 2°55.756 18.8331 0.068805 0.418863 -1.000568
2010-05-11 05:01:39 51°13.703 2°55.756 18.8185 0.068805 0.418855 -1.035392
2010-05-11 05:02:02 51°13.702 2°55.752 18.6801 0.068805 0.418848 -1.035392
2010-05-11 05:02:25 51°13.697 2°55.744 18.7721 0.068805 0.41884 -1.035392
2010-05-11 05:02:31 51°13.698 2°55.743 18.8159 0.068805 0.418832 -1.035392
2010-05-11 05:02:49 51°13.701 2°55.743 18.8375 0.068805 0.41884 -1.035392
2010-05-11 05:02:49 51°13.701 2°55.743 18.8375 0.068805 0.41884 -1.035392
2010-05-11 05:03:03 51°13.704 2°55.742 18.8351 0.068805 0.41884 -1.000568
2010-05-11 05:03:08 51°13.706 2°55.742 18.8361 0.068805 0.41884 -1.000568
2010-05-11 05:03:08 51°13.706 2°55.742 18.8361 0.068805 0.41884 -1.000568
2010-05-11 05:03:20 51°13.713 2°55.738 18.8725 0.068805 0.418848 -1.000568
2010-05-11 05:03:42 51°13.733 2°55.723 18.8627 0.068805 0.418824 -1.035392
2010-05-11 05:03:47 51°13.74 2°55.717 18.866 0.068805 0.418816 -1.035392
2010-05-11 05:03:52 51°13.747 2°55.71 18.8991 0.068805 0.418816 -1.035392
2010-05-11 05:03:57 51°13.755 2°55.702 18.7513 0.068805 0.418801 -1.000568
2010-05-11 05:04:02 51°13.764 2°55.693 18.6761 0.068805 0.418801 -0.965744
2010-05-11 05:04:07 51°13.774 2°55.685 18.6361 0.068805 0.418793 -1.000568
2010-05-11 05:04:12 51°13.783 2°55.676 18.5744 0.068805 0.418785 -1.000568
2010-05-11 05:04:16 51°13.791 2°55.668 18.5573 0.068805 0.418801 -1.000568
2010-05-11 05:04:21 51°13.802 2°55.659 18.5001 0.068805 0.418801 -1.000568
2010-05-11 05:04:26 51°13.813 2°55.65 18.54 0.068805 0.418793 -1.000568
2010-05-11 05:04:31 51°13.824 2°55.641 18.4925 0.068805 0.418793 -1.000568
2010-05-11 05:04:36 51°13.835 2°55.632 18.4862 0.068805 0.418809 -1.000568
2010-05-11 05:04:40 51°13.845 2°55.626 18.5342 0.068805 0.418816 -1.035392
2010-05-11 05:04:45 51°13.857 2°55.617 18.5532 0.068805 0.418809 -1.000568
2010-05-11 05:04:51 51°13.872 2°55.608 18.6232 0.068805 0.418809 -1.000568
2010-05-11 05:04:55 51°13.881 2°55.602 18.614 0.068805 0.418816 -1.035392
2010-05-11 05:05:00 51°13.894 2°55.594 18.6866 0.068805 0.418824 -1.000568
2010-05-11 05:05:06 51°13.91 2°55.586 18.6858 0.068805 0.418824 -0.965744
2010-05-11 05:05:11 51°13.922 2°55.579 18.7387 0.068805 0.418832 -1.000568
2010-05-11 05:05:15 51°13.932 2°55.573 18.7102 0.068805 0.418848 -1.000568
2010-05-11 05:05:20 51°13.945 2°55.565 18.6984 0.068805 0.418848 -1.000568
2010-05-11 05:05:26 51°13.96 2°55.554 18.6957 0.068805 0.418832 -1.000568
2010-05-11 05:05:31 51°13.973 2°55.545 18.6827 0.068805 0.41884 -1.000568
2010-05-11 05:05:35 51°13.983 2°55.537 18.6682 0.068805 0.418824 -1.035392
2010-05-11 05:05:40 51°13.995 2°55.527 18.6756 0.068805 0.418832 -1.000568
2010-05-11 05:05:45 51°14.007 2°55.517 18.622 0.068805 0.418832 -0.965744
2010-05-11 05:05:51 51°14.022 2°55.505 18.6379 0.068805 0.418832 -0.965744
2010-05-11 05:05:56 51°14.035 2°55.495 18.7156 0.068805 0.418832 -1.035392
2010-05-11 05:06:00 51°14.044 2°55.487 18.6359 0.068805 0.418824 -0.965744
2010-05-11 05:06:04 51°14.054 2°55.479 18.6772 0.068805 0.418832 -1.000568
2010-05-11 05:06:11 51°14.071 2°55.465 18.6705 0.068805 0.418816 -1.035392
2010-05-11 05:06:16 51°14.083 2°55.456 18.7203 0.068805 0.418816 -1.000568
2010-05-11 05:06:20 51°14.093 2°55.448 18.7597 0.068805 0.418816 -1.000568
2010-05-11 05:06:25 51°14.105 2°55.438 18.751 0.068805 0.418809 -1.035392
2010-05-11 05:06:30 51°14.117 2°55.428 18.6953 0.068805 0.418809 -1.000568
2010-05-11 05:06:36 51°14.132 2°55.415 18.6993 0.068805 0.418809 -0.965744
2010-05-11 05:06:40 51°14.141 2°55.407 18.6741 0.068805 0.418809 -1.035392
2010-05-11 05:06:45 51°14.153 2°55.396 18.6726 0.068805 0.418809 -1.000568
2010-05-11 05:06:51 51°14.168 2°55.383 18.621 0.068805 0.418809 -1.000568
2010-05-11 05:06:56 51°14.18 2°55.373 18.6628 0.068805 0.418809 -1.035392
2010-05-11 05:07:00 51°14.189 2°55.365 18.6548 0.068805 0.418809 -1.000568
2010-05-11 05:07:05 51°14.202 2°55.356 18.7118 0.068805 0.418809 -1.000568
2010-05-11 05:07:11 51°14.216 2°55.344 18.6885 0.068805 0.418809 -1.035392
2010-05-11 05:07:16 51°14.229 2°55.334 18.6485 0.068805 0.418824 -1.000568
2010-05-11 05:07:20 51°14.238 2°55.327 18.6823 0.068805 0.418824 -1.000568
2010-05-11 05:07:25 51°14.251 2°55.318 18.7449 0.068805 0.418816 -1.035392
2010-05-11 05:07:31 51°14.266 2°55.307 18.6875 0.068805 0.418809 -1.000568
2010-05-11 05:07:36 51°14.278 2°55.298 18.6864 0.068805 0.418809 -1.035392
2010-05-11 05:07:40 51°14.288 2°55.291 18.7556 0.068805 0.418816 -1.035392
2010-05-11 05:07:45 51°14.3 2°55.281 18.7031 0.068805 0.418816 -1.000568
2010-05-11 05:07:51 51°14.315 2°55.27 18.7303 0.068805 0.418816 -1.000568
2010-05-11 05:07:56 51°14.328 2°55.26 18.7488 0.068805 0.418809 -1.000568
2010-05-11 05:08:00 51°14.337 2°55.252 18.758 0.068805 0.418816 -1.000568
2010-05-11 05:08:04 51°14.347 2°55.244 18.7192 0.068805 0.418824 -1.035392
2010-05-11 05:08:11 51°14.364 2°55.229 18.7671 0.068805 0.418824 -1.000568
2010-05-11 05:08:16 51°14.376 2°55.217 18.5715 0.068805 0.418824 -1.000568
2010-05-11 05:08:20 51°14.385 2°55.207 18.5309 0.068805 0.418824 -1.000568
2010-05-11 05:08:24 51°14.394 2°55.196 18.6445 0.068805 0.41884 -1.000568
2010-05-11 05:08:30 51°14.408 2°55.179 18.6908 0.068805 0.418824 -1.035392
2010-05-11 05:08:36 51°14.421 2°55.161 18.5639 0.068805 0.418832 -1.000568
2010-05-11 05:08:40 51°14.43 2°55.149 18.6926 0.068805 0.41884 -1.035392
2010-05-11 05:08:45 51°14.442 2°55.133 18.6044 0.068805 0.418824 -1.035392
2010-05-11 05:08:51 51°14.455 2°55.113 18.5953 0.068805 0.418824 -1.035392
2010-05-11 05:08:56 51°14.467 2°55.097 18.5895 0.068805 0.418832 -1.035392
2010-05-11 05:09:01 51°14.479 2°55.08 18.5977 0.068805 0.418824 -1.000568
2010-05-11 05:09:05 51°14.489 2°55.067 18.5829 0.068805 0.418832 -1.000568
2010-05-11 05:09:10 51°14.501 2°55.05 18.6104 0.068805 0.418832 -1.000568
2010-05-11 05:09:15 51°14.512 2°55.032 18.6706 0.068805 0.418816 -1.000568
2010-05-11 05:09:21 51°14.526 2°55.008 18.5616 0.068805 0.418816 -1.000568
2010-05-11 05:09:25 51°14.534 2°54.991 18.5636 0.068805 0.41884 -1.035392
2010-05-11 05:09:31 51°14.547 2°54.964 18.5716 0.068805 0.418832 -1.000568
2010-05-11 05:09:35 51°14.556 2°54.946 18.5096 0.068805 0.418848 -1.000568
2010-05-11 05:09:41 51°14.569 2°54.92 18.5133 0.068805 0.418824 -1.000568
2010-05-11 05:09:45 51°14.578 2°54.902 18.5476 0.068805 0.418832 -1.000568
2010-05-11 05:09:50 51°14.59 2°54.88 18.4753 0.068805 0.418832 -1.000568
2010-05-11 05:09:55 51°14.602 2°54.858 18.5033 0.068805 0.418832 -1.035392
2010-05-11 05:10:01 51°14.617 2°54.833 18.514 0.068805 0.418832 -1.035392
2010-05-11 05:10:05 51°14.628 2°54.817 18.5275 0.068805 0.41884 -1.035392
2010-05-11 05:10:11 51°14.644 2°54.794 18.4281 0.068805 0.418848 -1.035392
2010-05-11 05:10:16 51°14.658 2°54.777 18.5217 0.068805 0.418848 -1.000568
2010-05-11 05:10:21 51°14.672 2°54.759 18.4904 0.068805 0.418848 -1.000568
2010-05-11 05:10:25 51°14.684 2°54.747 18.5247 0.068805 0.418863 -1.000568
2010-05-11 05:10:30 51°14.698 2°54.732 18.4902 0.068805 0.418855 -1.035392
2010-05-11 05:10:35 51°14.713 2°54.717 18.5713 0.068805 0.418871 -1.035392
2010-05-11 05:10:41 51°14.732 2°54.7 18.4865 0.068805 0.418871 -0.965744
2010-05-11 05:10:45 51°14.744 2°54.689 18.5545 0.068805 0.418879 -1.000568
2010-05-11 05:10:51 51°14.763 2°54.674 18.4793 0.068805 0.418879 -1.000568
2010-05-11 05:10:56 51°14.778 2°54.66 18.5127 0.068805 0.418887 -0.965744
2010-05-11 05:11:01 51°14.794 2°54.648 18.4708 0.068805 0.418879 -1.000568
2010-05-11 05:11:05 51°14.806 2°54.637 18.55 0.068805 0.418887 -1.035392
2010-05-11 05:11:10 51°14.822 2°54.625 18.5148 0.068805 0.418887 -1.000568
2010-05-11 05:11:15 51°14.838 2°54.612 18.5294 0.068805 0.418894 -1.035392
2010-05-11 05:11:21 51°14.857 2°54.596 18.542 0.068805 0.418894 -1.035392
2010-05-11 05:11:25 51°14.87 2°54.585 18.5454 0.068805 0.418918 -1.035392
2010-05-11 05:11:31 51°14.89 2°54.568 18.5384 0.068805 0.418925 -1.000568
2010-05-11 05:11:36 51°14.906 2°54.554 18.5155 0.068805 0.418933 -1.035392
2010-05-11 05:11:40 51°14.918 2°54.543 18.4619 0.068805 0.418925 -0.965744
2010-05-11 05:11:45 51°14.934 2°54.529 18.5007 0.068805 0.418933 -1.035392
2010-05-11 05:11:50 51°14.949 2°54.516 18.4966 0.068805 0.418933 -1.035392
2010-05-11 05:11:55 51°14.964 2°54.502 18.5287 0.068805 0.418925 -1.035392
2010-05-11 05:12:01 51°14.983 2°54.486 18.5074 0.068805 0.418941 -1.000568
2010-05-11 05:12:05 51°14.995 2°54.474 18.4926 0.068805 0.418949 -1.035392
2010-05-11 05:12:11 51°15.013 2°54.457 18.5408 0.068805 0.418949 -1.000568
2010-05-11 05:12:16 51°15.029 2°54.443 18.5141 0.068805 0.418964 -1.035392
2010-05-11 05:12:21 51°15.043 2°54.427 18.5422 0.068805 0.418964 -1.035392
2010-05-11 05:12:25 51°15.055 2°54.414 18.4471 0.068805 0.418964 -1.000568
2010-05-11 05:12:31 51°15.072 2°54.394 18.5317 0.068805 0.418988 -1.035392
2010-05-11 05:12:35 51°15.084 2°54.381 18.4307 0.068805 0.418964 -1.000568
2010-05-11 05:12:41 51°15.101 2°54.361 18.5262 0.068805 0.418972 -1.000568
2010-05-11 05:12:45 51°15.113 2°54.347 18.4488 0.068805 0.41898 -1.000568
2010-05-11 05:12:50 51°15.128 2°54.331 18.448 0.068805 0.41898 -1.000568
2010-05-11 05:12:56 51°15.145 2°54.311 18.5063 0.068701 0.418339 -1.000568
2010-05-11 05:13:01 51°15.16 2°54.295 18.5118 0.068805 0.418988 -1.000568
2010-05-11 05:13:06 51°15.175 2°54.278 18.4663 0.068805 0.419003 -1.000568
2010-05-11 05:13:10 51°15.186 2°54.264 18.4669 0.068805 0.419003 -1.000568
2010-05-11 05:13:16 51°15.204 2°54.245 18.5294 0.068805 0.419011 -1.000568
2010-05-11 05:13:21 51°15.219 2°54.228 18.5 0.068805 0.419011 -1.000568
2010-05-11 05:13:26 51°15.234 2°54.211 18.4941 0.068805 0.419003 -1.000568
2010-05-11 05:13:30 51°15.245 2°54.198 18.5667 0.068701 0.418362 -1.000568
2010-05-11 05:13:34 51°15.257 2°54.184 18.4776 0.068701 0.418362 -1.035392
2010-05-11 05:13:40 51°15.274 2°54.162 18.4982 0.068805 0.419019 -1.035392
2010-05-11 05:13:46 51°15.29 2°54.138 18.4709 0.068805 0.419058 -1.035392
2010-05-11 05:13:50 51°15.301 2°54.123 18.501 0.068805 0.419058 -1.035392
2010-05-11 05:13:55 51°15.314 2°54.103 18.4662 0.068805 0.41905 -1.000568
2010-05-11 05:14:00 51°15.328 2°54.083 18.4718 0.068701 0.418401 -1.035392
2010-05-11 05:14:06 51°15.344 2°54.059 18.4274 0.068805 0.419066 -1.000568
2010-05-11 05:14:10 51°15.354 2°54.042 18.504 0.068805 0.419058 -1.000568
2010-05-11 05:14:14 51°15.365 2°54.026 18.4858 0.068805 0.419066 -1.000568
2010-05-11 05:14:20 51°15.381 2°54.001 18.4577 0.068805 0.419066 -1.000568
2010-05-11 05:14:26 51°15.397 2°53.977 18.4203 0.068805 0.419058 -1.035392
2010-05-11 05:14:30 51°15.408 2°53.961 18.4272 0.068701 0.418409 -0.965744
2010-05-11 05:14:36 51°15.424 2°53.937 18.4909 0.068701 0.418409 -1.000568
2010-05-11 05:14:41 51°15.437 2°53.917 18.4625 0.068701 0.418424 -1.035392
2010-05-11 05:14:45 51°15.448 2°53.901 18.4546 0.068701 0.418417 -1.000568
2010-05-11 05:14:50 51°15.462 2°53.881 18.4937 0.068701 0.418417 -1.000568
2010-05-11 05:14:55 51°15.476 2°53.862 18.3979 0.068805 0.419073 -1.000568
2010-05-11 05:15:01 51°15.492 2°53.838 18.4923 0.068805 0.419097 -1.000568
2010-05-11 05:15:06 51°15.506 2°53.819 18.4034 0.068701 0.41844 -1.035392
2010-05-11 05:15:10 51°15.516 2°53.802 18.4761 0.068805 0.419089 -1.000568
2010-05-11 05:15:16 51°15.532 2°53.778 18.4441 0.068701 0.418455 -1.000568
2010-05-11 05:15:21 51°15.546 2°53.758 18.4776 0.068701 0.418455 -1.000568
2010-05-11 05:15:26 51°15.559 2°53.738 18.4782 0.068701 0.418448 -1.000568
2010-05-11 05:15:30 51°15.57 2°53.722 18.4356 0.068701 0.418455 -1.035392
2010-05-11 05:15:35 51°15.583 2°53.702 18.4818 0.068805 0.419128 -1.000568
2010-05-11 05:15:41 51°15.6 2°53.679 18.484 0.068701 0.418463 -1.000568
2010-05-11 05:15:46 51°15.613 2°53.659 18.4513 0.068701 0.418479 -0.965744
2010-05-11 05:15:50 51°15.624 2°53.643 18.4192 0.068701 0.418479 -0.965744
2010-05-11 05:15:54 51°15.635 2°53.628 18.4749 0.068701 0.418487 -1.000568
2010-05-11 05:16:01 51°15.654 2°53.6 18.4275 0.068701 0.418479 -1.000568
2010-05-11 05:16:06 51°15.668 2°53.58 18.4752 0.068701 0.418494 -1.000568
2010-05-11 05:16:10 51°15.678 2°53.564 18.4793 0.068701 0.41851 -1.000568
2010-05-11 05:16:14 51°15.689 2°53.547 18.4545 0.068701 0.418487 -1.035392
2010-05-11 05:16:20 51°15.705 2°53.523 18.4693 0.068701 0.418487 -1.035392
2010-05-11 05:16:26 51°15.721 2°53.5 18.4045 0.068701 0.418502 -1.000568
2010-05-11 05:16:30 51°15.732 2°53.485 18.4511 0.068701 0.418533 -0.965744
2010-05-11 05:16:36 51°15.75 2°53.464 18.3913 0.068701 0.41851 -1.000568
2010-05-11 05:16:41 51°15.765 2°53.447 18.4601 0.068701 0.418525 -1.000568
2010-05-11 05:16:45 51°15.777 2°53.435 18.4227 0.068701 0.418541 -1.000568
2010-05-11 05:16:50 51°15.792 2°53.419 18.4735 0.068701 0.418541 -1.000568
2010-05-11 05:16:55 51°15.808 2°53.406 18.4714 0.068701 0.418525 -1.000568
2010-05-11 05:17:01 51°15.827 2°53.39 18.4214 0.068701 0.418549 -1.035392
2010-05-11 05:17:06 51°15.843 2°53.378 18.4795 0.068701 0.418549 -1.035392
2010-05-11 05:17:10 51°15.855 2°53.369 18.4376 0.068701 0.418549 -1.000568
2010-05-11 05:17:16 51°15.875 2°53.355 18.447 0.068701 0.418557 -1.000568
2010-05-11 05:17:21 51°15.891 2°53.343 18.4723 0.068701 0.418557 -1.000568
2010-05-11 05:17:26 51°15.907 2°53.333 18.4599 0.068701 0.418564 -1.000568
2010-05-11 05:17:30 51°15.92 2°53.325 18.4545 0.068701 0.41858 -1.035392
2010-05-11 05:17:36 51°15.94 2°53.314 18.4125 0.068701 0.418564 -1.000568
2010-05-11 05:17:41 51°15.957 2°53.304 18.45 0.068701 0.418564 -1.000568
2010-05-11 05:17:46 51°15.973 2°53.295 18.4788 0.068701 0.418596 -1.000568
2010-05-11 05:17:50 51°15.986 2°53.288 18.4919 0.068701 0.418596 -1.000568
2010-05-11 05:17:55 51°16.002 2°53.277 18.4475 0.068701 0.418588 -1.035392
2010-05-11 05:18:01 51°16.021 2°53.266 18.4298 0.068701 0.418611 -1.035392
2010-05-11 05:18:06 51°16.038 2°53.256 18.4841 0.068701 0.418603 -1.000568
2010-05-11 05:18:10 51°16.05 2°53.248 18.4577 0.068701 0.418619 -1.000568
2010-05-11 05:18:15 51°16.067 2°53.239 18.4358 0.068701 0.418619 -1.000568
2010-05-11 05:18:21 51°16.087 2°53.227 18.4693 0.068701 0.418619 -1.000568
2010-05-11 05:18:26 51°16.103 2°53.217 18.4621 0.068701 0.418627 -1.000568
2010-05-11 05:18:30 51°16.116 2°53.208 18.4496 0.068701 0.41865 -1.035392
2010-05-11 05:18:34 51°16.128 2°53.2 18.4775 0.068701 0.418619 -1.000568
2010-05-11 05:18:40 51°16.148 2°53.188 18.4829 0.068701 0.418634 -1.000568
2010-05-11 05:18:46 51°16.167 2°53.176 18.4549 0.068701 0.418634 -1.000568
2010-05-11 05:18:50 51°16.18 2°53.167 18.4772 0.068701 0.418634 -1.000568
2010-05-11 05:18:55 51°16.196 2°53.157 18.452 0.068701 0.418634 -1.035392
2010-05-11 05:19:00 51°16.212 2°53.146 18.4854 0.068701 0.418642 -1.000568
2010-05-11 05:19:06 51°16.231 2°53.133 18.489 0.068701 0.418658 -1.000568
2010-05-11 05:19:10 51°16.244 2°53.124 18.4501 0.068701 0.41865 -1.000568
2010-05-11 05:19:15 51°16.26 2°53.112 18.449 0.068701 0.418658 -1.000568
2010-05-11 05:19:21 51°16.279 2°53.1 18.4447 0.068701 0.418658 -1.000568
2010-05-11 05:19:26 51°16.295 2°53.089 18.4328 0.068701 0.418666 -1.000568
2010-05-11 05:19:30 51°16.308 2°53.081 18.4545 0.068701 0.418666 -1.035392
2010-05-11 05:19:36 51°16.328 2°53.069 18.4279 0.068701 0.418673 -1.000568
2010-05-11 05:19:41 51°16.344 2°53.06 18.4738 0.068701 0.418681 -1.000568
2010-05-11 05:19:46 51°16.36 2°53.051 18.4558 0.068701 0.418681 -1.000568
2010-05-11 05:19:50 51°16.373 2°53.042 18.46 0.068701 0.418681 -1.000568
2010-05-11 05:19:56 51°16.392 2°53.031 18.4694 0.068701 0.418681 -1.000568
2010-05-11 05:20:01 51°16.409 2°53.021 18.4674 0.068701 0.418689 -1.035392
2010-05-11 05:20:06 51°16.425 2°53.012 18.4517 0.068701 0.418689 -1.000568
2010-05-11 05:20:10 51°16.439 2°53.004 18.4373 0.068701 0.418712 -0.965744
2010-05-11 05:20:15 51°16.455 2°52.994 18.4698 0.068701 0.41872 -1.000568
2010-05-11 05:20:21 51°16.475 2°52.982 18.478 0.068701 0.41872 -1.000568
2010-05-11 05:20:26 51°16.491 2°52.972 18.4532 0.068701 0.418712 -1.000568
2010-05-11 05:20:30 51°16.504 2°52.964 18.4674 0.068701 0.418743 -1.000568
2010-05-11 05:20:35 51°16.521 2°52.953 18.4791 0.068701 0.418736 -1.000568
2010-05-11 05:20:40 51°16.537 2°52.943 18.474 0.068701 0.418728 -1.000568
2010-05-11 05:20:46 51°16.557 2°52.931 18.45 0.068701 0.418743 -1.000568
2010-05-11 05:20:50 51°16.57 2°52.923 18.433 0.068701 0.418743 -1.000568
2010-05-11 05:20:55 51°16.586 2°52.913 18.4497 0.068701 0.418743 -1.035392
2010-05-11 05:21:00 51°16.602 2°52.903 18.4898 0.068701 0.418743 -1.000568
2010-05-11 05:21:06 51°16.622 2°52.89 18.4596 0.068701 0.418751 -1.000568
2010-05-11 05:21:10 51°16.635 2°52.882 18.4597 0.068701 0.418759 -1.035392
2010-05-11 05:21:15 51°16.651 2°52.872 18.4644 0.068701 0.418751 -0.965744
2010-05-11 05:21:20 51°16.667 2°52.862 18.4445 0.068701 0.418751 -0.965744
2010-05-11 05:21:25 51°16.684 2°52.851 18.4809 0.068701 0.418767 -1.035392
2010-05-11 05:21:30 51°16.7 2°52.841 18.4611 0.068701 0.418767 -1.035392
2010-05-11 05:21:35 51°16.716 2°52.831 18.4749 0.068701 0.418775 -1.000568
2010-05-11 05:21:40 51°16.732 2°52.821 18.4742 0.068701 0.418775 -1.000568
2010-05-11 05:21:45 51°16.748 2°52.811 18.4681 0.068701 0.418775 -1.000568
2010-05-11 05:21:50 51°16.764 2°52.8 18.4738 0.068701 0.418775 -1.000568
2010-05-11 05:21:54 51°16.777 2°52.792 18.488 0.068701 0.418782 -1.000568
2010-05-11 05:22:00 51°16.796 2°52.78 18.4649 0.068701 0.41879 -1.000568
2010-05-11 05:22:06 51°16.815 2°52.768 18.4714 0.068701 0.418798 -1.000568
2010-05-11 05:22:10 51°16.827 2°52.759 18.4593 0.068701 0.418798 -1.035392
2010-05-11 05:22:16 51°16.846 2°52.747 18.4415 0.068701 0.418814 -1.000568
2010-05-11 05:22:20 51°16.859 2°52.739 18.4686 0.068701 0.418814 -1.000568
2010-05-11 05:22:26 51°16.878 2°52.727 18.473 0.068701 0.418806 -1.000568
2010-05-11 05:22:30 51°16.89 2°52.719 18.4767 0.068701 0.418814 -0.965744
2010-05-11 05:22:34 51°16.903 2°52.711 18.4652 0.068701 0.418814 -1.035392
2010-05-11 05:22:40 51°16.922 2°52.698 18.471 0.068701 0.418821 -1.000568
2010-05-11 05:22:46 51°16.941 2°52.687 18.473 0.068701 0.418829 -1.035392
2010-05-11 05:22:50 51°16.954 2°52.678 18.4613 0.068701 0.418829 -1.035392
2010-05-11 05:22:54 51°16.966 2°52.67 18.4597 0.068701 0.418829 -1.000568
2010-05-11 05:23:00 51°16.985 2°52.657 18.4897 0.068701 0.418837 -1.000568
2010-05-11 05:23:06 51°17.004 2°52.644 18.4587 0.068701 0.418829 -1.000568
2010-05-11 05:23:10 51°17.017 2°52.636 18.481 0.068701 0.418821 -0.965744
2010-05-11 05:23:14 51°17.03 2°52.627 18.4666 0.068701 0.418829 -1.035392
2010-05-11 05:23:20 51°17.049 2°52.615 18.494 0.068701 0.418829 -1.035392
2010-05-11 05:23:25 51°17.065 2°52.605 18.4559 0.068701 0.418845 -1.000568
2010-05-11 05:23:30 51°17.081 2°52.595 18.474 0.068701 0.418853 -1.000568
2010-05-11 05:23:34 51°17.094 2°52.587 18.4913 0.068701 0.418845 -1.035392
2010-05-11 05:23:40 51°17.113 2°52.575 18.48 0.068701 0.41886 -1.000568
2010-05-11 05:23:45 51°17.129 2°52.565 18.4822 0.068701 0.418868 -1.035392
2010-05-11 05:23:50 51°17.145 2°52.555 18.4933 0.068701 0.418868 -1.035392
2010-05-11 05:23:54 51°17.157 2°52.546 18.4875 0.068701 0.418853 -1.000568
2010-05-11 05:24:00 51°17.176 2°52.533 18.491 0.068701 0.418868 -1.000568
2010-05-11 05:24:05 51°17.192 2°52.522 18.4626 0.068701 0.41886 -0.965744
2010-05-11 05:24:10 51°17.208 2°52.512 18.4932 0.068701 0.418868 -1.000568
2010-05-11 05:24:14 51°17.221 2°52.503 18.4499 0.068701 0.418868 -1.000568
2010-05-11 05:24:20 51°17.24 2°52.491 18.4531 0.068701 0.418868 -1.000568
2010-05-11 05:24:26 51°17.26 2°52.481 18.4612 0.068701 0.418884 -1.000568
2010-05-11 05:24:30 51°17.273 2°52.477 18.4863 0.068701 0.41886 -1.000568
2010-05-11 05:24:34 51°17.287 2°52.471 18.4644 0.068597 0.418226 -1.035392
2010-05-11 05:24:40 51°17.307 2°52.466 18.4632 0.068701 0.418868 -1.000568
2010-05-11 05:24:46 51°17.327 2°52.461 18.4987 0.068701 0.418884 -1.000568
2010-05-11 05:24:50 51°17.34 2°52.459 18.479 0.068701 0.418884 -1.000568
2010-05-11 05:24:54 51°17.354 2°52.457 18.4846 0.068597 0.418234 -1.000568
2010-05-11 05:25:00 51°17.374 2°52.454 18.4943 0.068701 0.418884 -1.000568
2010-05-11 05:25:06 51°17.394 2°52.451 18.4895 0.068597 0.418242 -1.035392
2010-05-11 05:25:10 51°17.407 2°52.451 18.472 0.068701 0.418892 -1.000568
2010-05-11 05:25:14 51°17.421 2°52.449 18.5034 0.068701 0.418899 -1.000568
2010-05-11 05:25:20 51°17.441 2°52.449 18.4873 0.068701 0.418899 -1.000568
2010-05-11 05:25:26 51°17.461 2°52.447 18.4991 0.068701 0.418899 -1.000568
2010-05-11 05:25:30 51°17.474 2°52.446 18.4989 0.068701 0.418907 -0.965744
2010-05-11 05:25:34 51°17.487 2°52.445 18.5009 0.068701 0.418923 -1.000568
2010-05-11 05:25:40 51°17.508 2°52.444 18.4894 0.068597 0.418265 -1.000568
2010-05-11 05:25:46 51°17.528 2°52.443 18.4691 0.068701 0.418931 -1.000568
2010-05-11 05:25:50 51°17.541 2°52.442 18.4834 0.068701 0.418931 -1.000568
2010-05-11 05:25:54 51°17.554 2°52.441 18.4872 0.068597 0.418281 -1.000568
2010-05-11 05:26:00 51°17.574 2°52.439 18.4899 0.068701 0.418938 -0.965744
2010-05-11 05:26:05 51°17.591 2°52.439 18.4782 0.068597 0.418281 -1.000568
2010-05-11 05:26:10 51°17.608 2°52.439 18.4916 0.068701 0.418938 -1.000568
2010-05-11 05:26:14 51°17.621 2°52.44 18.479 0.068701 0.418923 -1.000568
2010-05-11 05:26:20 51°17.641 2°52.442 18.472 0.068701 0.418923 -1.000568
2010-05-11 05:26:26 51°17.661 2°52.446 18.4947 0.068597 0.418273 -1.000568
2010-05-11 05:26:30 51°17.674 2°52.447 18.4991 0.068701 0.418923 -1.000568
2010-05-11 05:26:34 51°17.687 2°52.451 18.4936 0.068597 0.418273 -1.035392
2010-05-11 05:26:40 51°17.707 2°52.456 18.5089 0.068597 0.418289 -1.000568
2010-05-11 05:26:46 51°17.726 2°52.463 18.4908 0.068597 0.418281 -1.035392
2010-05-11 05:26:50 51°17.739 2°52.467 18.5077 0.068597 0.418281 -1.035392
2010-05-11 05:26:54 51°17.752 2°52.472 18.496 0.068597 0.418296 -1.035392
2010-05-11 05:27:00 51°17.771 2°52.479 18.514 0.068701 0.418946 -1.035392
2010-05-11 05:27:06 51°17.79 2°52.487 18.4915 0.068701 0.418946 -1.035392
2010-05-11 05:27:10 51°17.803 2°52.491 18.5107 0.068597 0.418296 -1.000568
2010-05-11 05:27:14 51°17.816 2°52.496 18.498 0.068701 0.418946 -1.000568
2010-05-11 05:27:20 51°17.835 2°52.503 18.5014 0.068701 0.418946 -1.000568
2010-05-11 05:27:26 51°17.855 2°52.511 18.51 0.068597 0.418312 -0.965744
2010-05-11 05:27:30 51°17.868 2°52.515 18.5168 0.068701 0.41897 -1.035392
2010-05-11 05:27:34 51°17.881 2°52.52 18.5101 0.068701 0.41897 -1.000568
2010-05-11 05:27:40 51°17.9 2°52.527 18.5093 0.068701 0.418962 -1.035392
2010-05-11 05:27:45 51°17.916 2°52.535 18.4974 0.068701 0.418962 -0.965744
2010-05-11 05:27:50 51°17.932 2°52.542 18.485 0.068701 0.418962 -0.965744
2010-05-11 05:27:54 51°17.945 2°52.548 18.517 0.068597 0.418335 -1.000568
2010-05-11 05:28:00 51°17.963 2°52.56 18.5006 0.068701 0.41897 -1.000568
2010-05-11 05:28:05 51°17.978 2°52.569 18.5135 0.068597 0.418343 -1.000568
2010-05-11 05:28:10 51°17.993 2°52.58 18.4859 0.068597 0.41832 -1.000568
2010-05-11 05:28:14 51°18.005 2°52.588 18.5038 0.068597 0.41832 -1.035392
2010-05-11 05:28:20 51°18.022 2°52.602 18.5148 0.068597 0.41832 -1.035392
2010-05-11 05:28:25 51°18.037 2°52.615 18.4826 0.068701 0.41897 -1.000568
2010-05-11 05:28:30 51°18.051 2°52.629 18.4913 0.068597 0.418343 -1.035392
2010-05-11 05:28:34 51°18.062 2°52.64 18.5206 0.068597 0.41832 -1.035392
2010-05-11 05:28:40 51°18.078 2°52.659 18.5109 0.068597 0.418327 -1.035392
2010-05-11 05:28:46 51°18.093 2°52.679 18.502 0.068597 0.418312 -1.000568
2010-05-11 05:28:50 51°18.103 2°52.692 18.5058 0.068597 0.418312 -1.000568
2010-05-11 05:28:54 51°18.113 2°52.706 18.4904 0.068597 0.418335 -1.000568
2010-05-11 05:29:00 51°18.127 2°52.727 18.5196 0.068597 0.418343 -1.000568
2010-05-11 05:29:06 51°18.142 2°52.748 18.5072 0.068597 0.418343 -1.000568
2010-05-11 05:29:10 51°18.152 2°52.763 18.5304 0.068597 0.418343 -1.000568
2010-05-11 05:29:14 51°18.161 2°52.778 18.4972 0.068597 0.418351 -1.000568
2010-05-11 05:29:20 51°18.175 2°52.8 18.5186 0.068597 0.418351 -1.000568
2010-05-11 05:29:26 51°18.188 2°52.824 18.5071 0.068597 0.418359 -0.965744
2010-05-11 05:29:30 51°18.197 2°52.838 18.5108 0.068701 0.419016 -1.000568
2010-05-11 05:29:34 51°18.206 2°52.854 18.5185 0.068597 0.418351 -1.035392
2010-05-11 05:29:40 51°18.219 2°52.878 18.5341 0.068597 0.418366 -1.035392
2010-05-11 05:29:46 51°18.232 2°52.902 18.5254 0.068597 0.418351 -1.000568
2010-05-11 05:29:50 51°18.24 2°52.917 18.5355 0.068597 0.418351 -1.000568
2010-05-11 05:29:54 51°18.249 2°52.933 18.5113 0.068597 0.418366 -1.000568
2010-05-11 05:30:00 51°18.262 2°52.956 18.5316 0.068597 0.418374 -1.000568
2010-05-11 05:30:06 51°18.275 2°52.981 18.498 0.068597 0.418343 -1.035392
2010-05-11 05:30:10 51°18.283 2°52.997 18.528 0.068597 0.418366 -1.000568
2010-05-11 05:30:14 51°18.291 2°53.014 18.5252 0.068597 0.418351 -1.000568
2010-05-11 05:30:20 51°18.303 2°53.038 18.525 0.068597 0.418351 -1.000568
2010-05-11 05:30:25 51°18.312 2°53.059 18.5171 0.068597 0.418351 -0.965744
2010-05-11 05:30:30 51°18.322 2°53.08 18.5229 0.068597 0.418359 -1.000568
2010-05-11 05:30:34 51°18.33 2°53.097 18.5333 0.068597 0.418374 -1.000568
2010-05-11 05:30:40 51°18.341 2°53.123 18.5131 0.068597 0.418374 -1.000568
2010-05-11 05:30:45 51°18.35 2°53.145 18.5312 0.068597 0.418374 -1.000568
2010-05-11 05:30:50 51°18.359 2°53.167 18.5063 0.068597 0.418374 -1.000568
2010-05-11 05:30:54 51°18.366 2°53.184 18.5406 0.068597 0.418382 -1.000568
2010-05-11 05:31:00 51°18.376 2°53.212 18.5356 0.068597 0.418366 -1.000568
2010-05-11 05:31:06 51°18.387 2°53.238 18.5421 0.068597 0.41839 -1.000568
2010-05-11 05:31:10 51°18.394 2°53.256 18.5341 0.068597 0.418382 -1.035392
2010-05-11 05:31:14 51°18.401 2°53.274 18.5335 0.068597 0.418382 -1.035392
2010-05-11 05:31:20 51°18.411 2°53.301 18.5277 0.068597 0.418382 -1.035392
2010-05-11 05:31:26 51°18.421 2°53.328 18.5346 0.068597 0.41839 -1.000568
2010-05-11 05:31:30 51°18.428 2°53.346 18.5363 0.068597 0.41839 -1.035392
2010-05-11 05:31:34 51°18.434 2°53.364 18.5141 0.068597 0.418398 -1.035392
2010-05-11 05:31:40 51°18.445 2°53.39 18.5439 0.068597 0.418398 -1.000568
2010-05-11 05:31:46 51°18.455 2°53.417 18.5506 0.068597 0.418398 -1.035392
2010-05-11 05:31:50 51°18.462 2°53.435 18.5453 0.068597 0.418398 -1.035392
2010-05-11 05:31:54 51°18.47 2°53.453 18.5169 0.068597 0.418405 -1.035392
2010-05-11 05:32:00 51°18.48 2°53.48 18.5141 0.068597 0.418413 -1.035392
2010-05-11 05:32:06 51°18.491 2°53.506 18.5392 0.068597 0.41839 -1.000568
2010-05-11 05:32:10 51°18.498 2°53.524 18.5098 0.068597 0.418405 -1.035392
2010-05-11 05:32:14 51°18.505 2°53.541 18.5297 0.068597 0.418405 -1.000568
2010-05-11 05:32:20 51°18.515 2°53.568 18.5208 0.068597 0.418405 -1.000568
2010-05-11 05:32:25 51°18.524 2°53.59 18.542 0.068597 0.418413 -1.000568
2010-05-11 05:32:30 51°18.532 2°53.613 18.5312 0.068597 0.418398 -0.965744
2010-05-11 05:32:34 51°18.54 2°53.631 18.5146 0.068597 0.418437 -1.000568
2010-05-11 05:32:40 51°18.55 2°53.657 18.5202 0.068597 0.418413 -1.000568
2010-05-11 05:32:45 51°18.559 2°53.679 18.5363 0.068597 0.418437 -1.035392
2010-05-11 05:32:50 51°18.568 2°53.702 18.545 0.068597 0.418437 -1.035392
2010-05-11 05:32:54 51°18.575 2°53.719 18.5339 0.068597 0.418405 -1.035392
2010-05-11 05:33:00 51°18.586 2°53.746 18.5391 0.068597 0.418429 -1.035392
2010-05-11 05:33:06 51°18.597 2°53.772 18.5277 0.068597 0.418429 -1.000568
2010-05-11 05:33:10 51°18.604 2°53.79 18.5358 0.068597 0.418421 -1.000568
2010-05-11 05:33:14 51°18.611 2°53.808 18.5429 0.068597 0.418429 -1.000568
2010-05-11 05:33:20 51°18.622 2°53.834 18.5316 0.068597 0.418429 -1.000568
2010-05-11 05:33:26 51°18.633 2°53.861 18.5463 0.068597 0.418421 -1.000568
2010-05-11 05:33:30 51°18.64 2°53.879 18.5482 0.068597 0.418437 -1.000568
2010-05-11 05:33:34 51°18.648 2°53.896 18.5589 0.068597 0.418437 -1.035392
2010-05-11 05:33:40 51°18.658 2°53.922 18.5218 0.068597 0.418421 -1.000568
2010-05-11 05:33:46 51°18.669 2°53.949 18.5524 0.068597 0.418429 -1.000568
2010-05-11 05:33:50 51°18.677 2°53.966 18.5329 0.068597 0.418429 -1.000568
2010-05-11 05:33:54 51°18.684 2°53.983 18.5512 0.068597 0.41846 -1.000568
2010-05-11 05:34:01 51°18.697 2°54.015 18.5376 0.068597 0.418452 -1.000568
2010-05-11 05:34:06 51°18.706 2°54.037 18.5302 0.068597 0.41846 -1.000568
2010-05-11 05:34:10 51°18.713 2°54.054 18.5438 0.068597 0.418452 -1.000568
2010-05-11 05:34:14 51°18.721 2°54.072 18.5265 0.068597 0.418452 -1.000568
2010-05-11 05:34:20 51°18.731 2°54.098 18.5476 0.068597 0.418452 -1.000568
2010-05-11 05:34:26 51°18.743 2°54.124 18.5529 0.068597 0.418444 -1.000568
2010-05-11 05:34:30 51°18.75 2°54.141 18.5367 0.068597 0.418437 -1.035392
2010-05-11 05:34:34 51°18.757 2°54.159 18.5341 0.068597 0.41846 -1.000568
2010-05-11 05:34:40 51°18.768 2°54.185 18.5482 0.068597 0.418444 -1.000568
2010-05-11 05:34:46 51°18.779 2°54.211 18.5471 0.068597 0.418468 -0.965744
2010-05-11 05:34:50 51°18.786 2°54.229 18.546 0.068597 0.418468 -0.965744
2010-05-11 05:34:54 51°18.794 2°54.247 18.5494 0.068597 0.418452 -1.035392
2010-05-11 05:35:00 51°18.805 2°54.273 18.5641 0.068597 0.418452 -0.965744
2010-05-11 05:35:05 51°18.814 2°54.295 18.5441 0.068597 0.418468 -1.000568
2010-05-11 05:35:10 51°18.823 2°54.316 18.5489 0.068597 0.41846 -1.035392
2010-05-11 05:35:14 51°18.831 2°54.334 18.553 0.068597 0.41846 -1.035392
2010-05-11 05:35:20 51°18.842 2°54.36 18.5335 0.068597 0.41846 -1.035392
2010-05-11 05:35:26 51°18.853 2°54.386 18.5341 0.068597 0.418468 -1.035392
2010-05-11 05:35:30 51°18.86 2°54.404 18.5608 0.068597 0.418468 -1.035392
2010-05-11 05:35:34 51°18.867 2°54.422 18.5404 0.068597 0.41846 -1.000568
2010-05-11 05:35:40 51°18.879 2°54.447 18.5496 0.068597 0.418476 -1.000568
2010-05-11 05:35:46 51°18.89 2°54.474 18.553 0.068597 0.418476 -1.000568
2010-05-11 05:35:50 51°18.897 2°54.491 18.5634 0.068597 0.418476 -1.000568
2010-05-11 05:35:54 51°18.905 2°54.509 18.5542 0.068597 0.418483 -0.965744
2010-05-11 05:36:00 51°18.916 2°54.535 18.5474 0.068597 0.418491 -1.000568
2010-05-11 05:36:06 51°18.926 2°54.562 18.5434 0.068597 0.418476 -1.000568
2010-05-11 05:36:10 51°18.934 2°54.579 18.5525 0.068597 0.418522 -0.965744
2010-05-11 05:36:14 51°18.942 2°54.597 18.544 0.068597 0.418491 -1.000568
2010-05-11 05:36:20 51°18.953 2°54.623 18.5614 0.068597 0.418491 -1.000568
2010-05-11 05:36:26 51°18.964 2°54.65 18.5609 0.068597 0.418499 -1.000568
2010-05-11 05:36:30 51°18.972 2°54.667 18.5696 0.068597 0.418507 -1.000568
2010-05-11 05:36:34 51°18.978 2°54.685 18.5493 0.068597 0.418491 -1.000568
2010-05-11 05:36:40 51°18.99 2°54.711 18.5551 0.068597 0.418491 -1.000568
2010-05-11 05:36:45 51°18.999 2°54.733 18.5588 0.068597 0.418514 -1.035392
2010-05-11 05:36:50 51°19.008 2°54.755 18.5636 0.068597 0.418514 -1.035392
2010-05-11 05:36:54 51°19.016 2°54.772 18.5515 0.068597 0.418483 -1.000568
2010-05-11 05:37:00 51°19.027 2°54.798 18.5631 0.068597 0.418507 -1.035392
2010-05-11 05:37:05 51°19.036 2°54.82 18.5646 0.068597 0.418499 -1.035392
2010-05-11 05:37:10 51°19.045 2°54.842 18.5462 0.068597 0.418499 -1.000568
2010-05-11 05:37:14 51°19.053 2°54.859 18.5654 0.068597 0.418507 -1.035392
2010-05-11 05:37:20 51°19.064 2°54.885 18.5632 0.068597 0.418507 -1.035392
2010-05-11 05:37:25 51°19.073 2°54.907 18.5396 0.068597 0.418499 -1.035392
2010-05-11 05:37:30 51°19.082 2°54.929 18.5604 0.068597 0.418514 -1.035392
2010-05-11 05:37:34 51°19.089 2°54.947 18.5592 0.068597 0.418514 -1.000568
2010-05-11 05:37:40 51°19.099 2°54.975 18.5511 0.068597 0.418522 -1.000568
2010-05-11 05:37:46 51°19.109 2°55.002 18.5659 0.068597 0.418514 -1.035392
2010-05-11 05:37:50 51°19.116 2°55.02 18.5624 0.068597 0.418514 -1.035392
2010-05-11 05:37:56 51°19.125 2°55.048 18.5594 0.068597 0.418499 -1.000568
2010-05-11 05:38:00 51°19.132 2°55.066 18.5712 0.068597 0.418522 -1.000568
2010-05-11 05:38:06 51°19.141 2°55.095 18.5585 0.068597 0.418507 -1.035392
2010-05-11 05:38:10 51°19.147 2°55.113 18.5578 0.068597 0.41853 -1.000568
2010-05-11 05:38:15 51°19.155 2°55.136 18.5678 0.068597 0.418514 -1.000568
2010-05-11 05:38:21 51°19.164 2°55.164 18.563 0.068597 0.418514 -1.000568
2010-05-11 05:38:26 51°19.172 2°55.188 18.5732 0.068597 0.41853 -0.965744
2010-05-11 05:38:30 51°19.179 2°55.206 18.571 0.068597 0.418522 -1.000568
2010-05-11 05:38:35 51°19.186 2°55.23 18.5749 0.068597 0.418514 -1.000568
2010-05-11 05:38:41 51°19.196 2°55.258 18.5604 0.068597 0.418507 -1.000568
2010-05-11 05:38:46 51°19.204 2°55.281 18.5632 0.068597 0.418507 -1.000568
2010-05-11 05:38:50 51°19.209 2°55.301 18.5537 0.068597 0.418507 -1.000568
2010-05-11 05:38:55 51°19.218 2°55.324 18.5684 0.068597 0.418538 -1.000568
2010-05-11 05:39:00 51°19.224 2°55.348 18.5704 0.068597 0.418499 -1.000568
2010-05-11 05:39:05 51°19.231 2°55.372 18.5743 0.068597 0.418538 -1.035392
2010-05-11 05:39:10 51°19.238 2°55.396 18.5566 0.068597 0.418522 -1.000568
2010-05-11 05:39:14 51°19.244 2°55.415 18.5789 0.068597 0.418522 -1.035392
2010-05-11 05:39:20 51°19.251 2°55.445 18.5714 0.068597 0.418522 -1.035392
2010-05-11 05:39:25 51°19.258 2°55.469 18.5799 0.068597 0.41853 -1.000568
2010-05-11 05:39:30 51°19.264 2°55.494 18.5777 0.068597 0.418522 -1.035392
2010-05-11 05:39:34 51°19.269 2°55.513 18.5656 0.068597 0.418538 -1.000568
2010-05-11 05:39:40 51°19.277 2°55.543 18.5662 0.068597 0.418546 -1.035392
2010-05-11 05:39:45 51°19.283 2°55.567 18.5763 0.068597 0.418538 -1.035392
2010-05-11 05:39:50 51°19.289 2°55.592 18.5681 0.068597 0.418538 -1.035392
2010-05-11 05:39:54 51°19.294 2°55.612 18.5799 0.068597 0.418546 -1.035392
2010-05-11 05:40:00 51°19.302 2°55.642 18.5721 0.068597 0.418538 -1.035392
2010-05-11 05:40:06 51°19.309 2°55.672 18.5685 0.068597 0.418538 -1.000568
2010-05-11 05:40:10 51°19.315 2°55.691 18.5763 0.068597 0.418538 -1.000568
2010-05-11 05:40:14 51°19.32 2°55.711 18.5659 0.068597 0.418538 -1.000568
2010-05-11 05:40:20 51°19.328 2°55.74 18.5856 0.068597 0.418538 -1.000568
2010-05-11 05:40:26 51°19.335 2°55.769 18.5739 0.068597 0.418553 -1.000568
2010-05-11 05:40:30 51°19.34 2°55.789 18.5694 0.068597 0.418546 -1.000568
2010-05-11 05:40:34 51°19.346 2°55.809 18.5755 0.068597 0.418546 -1.000568
2010-05-11 05:40:40 51°19.353 2°55.839 18.5711 0.068597 0.418553 -1.000568
2010-05-11 05:40:46 51°19.361 2°55.868 18.5874 0.068597 0.418538 -1.000568
2010-05-11 05:40:50 51°19.367 2°55.887 18.5675 0.068597 0.418538 -1.000568
2010-05-11 05:40:54 51°19.372 2°55.907 18.5809 0.068597 0.418546 -0.965744
2010-05-11 05:41:00 51°19.38 2°55.936 18.588 0.068597 0.418546 -1.000568
2010-05-11 05:41:06 51°19.387 2°55.966 18.5681 0.068597 0.418538 -1.000568
2010-05-11 05:41:10 51°19.393 2°55.985 18.5883 0.068597 0.418553 -1.000568
2010-05-11 05:41:14 51°19.398 2°56.005 18.5779 0.068597 0.418546 -1.000568
2010-05-11 05:41:20 51°19.406 2°56.034 18.5853 0.068597 0.418546 -1.000568
2010-05-11 05:41:25 51°19.412 2°56.059 18.5846 0.068597 0.418553 -1.000568
2010-05-11 05:41:30 51°19.419 2°56.084 18.587 0.068597 0.418553 -1.000568
2010-05-11 05:41:34 51°19.424 2°56.104 18.5788 0.068597 0.418569 -1.000568
2010-05-11 05:41:40 51°19.432 2°56.133 18.5828 0.068597 0.418561 -1.000568
2010-05-11 05:41:45 51°19.439 2°56.157 18.5834 0.068597 0.418561 -1.000568
2010-05-11 05:41:50 51°19.445 2°56.181 18.5885 0.068597 0.418561 -1.000568
2010-05-11 05:41:54 51°19.45 2°56.201 18.5813 0.068597 0.418553 -1.000568
2010-05-11 05:42:00 51°19.458 2°56.23 18.5889 0.068597 0.418561 -1.000568
2010-05-11 05:42:05 51°19.465 2°56.254 18.5935 0.068597 0.418569 -1.035392
2010-05-11 05:42:10 51°19.472 2°56.279 18.5954 0.068597 0.418561 -1.000568
2010-05-11 05:42:14 51°19.477 2°56.299 18.5825 0.068597 0.418561 -1.035392
2010-05-11 05:42:20 51°19.486 2°56.328 18.5937 0.068597 0.418561 -1.035392
2010-05-11 05:42:26 51°19.494 2°56.357 18.5944 0.068597 0.418553 -1.035392
2010-05-11 05:42:30 51°19.499 2°56.376 18.579 0.068597 0.418569 -1.035392
2010-05-11 05:42:34 51°19.504 2°56.396 18.601 0.068597 0.418577 -1.035392
2010-05-11 05:42:40 51°19.512 2°56.426 18.602 0.068597 0.418561 -1.000568
2010-05-11 05:42:46 51°19.52 2°56.454 18.5774 0.068597 0.418585 -1.035392
2010-05-11 05:42:50 51°19.525 2°56.474 18.5878 0.068597 0.418585 -1.035392
2010-05-11 05:42:54 51°19.53 2°56.493 18.591 0.068597 0.418577 -0.965744
2010-05-11 05:43:00 51°19.538 2°56.523 18.5921 0.068597 0.418585 -0.965744
2010-05-11 05:43:06 51°19.546 2°56.552 18.5983 0.068597 0.418569 -1.000568
2010-05-11 05:43:10 51°19.552 2°56.571 18.5833 0.068597 0.418585 -1.000568
2010-05-11 05:43:14 51°19.557 2°56.59 18.5986 0.068597 0.418569 -1.000568
2010-05-11 05:43:20 51°19.565 2°56.62 18.5873 0.068597 0.418569 -1.000568
2010-05-11 05:43:26 51°19.573 2°56.649 18.6085 0.068597 0.4186 -1.000568
2010-05-11 05:43:30 51°19.578 2°56.669 18.5935 0.068597 0.418577 -1.000568
2010-05-11 05:43:34 51°19.584 2°56.688 18.6066 0.068597 0.4186 -1.000568
2010-05-11 05:43:40 51°19.591 2°56.717 18.585 0.068597 0.418592 -1.000568
2010-05-11 05:43:45 51°19.599 2°56.742 18.6044 0.068597 0.4186 -1.000568
2010-05-11 05:43:50 51°19.605 2°56.766 18.5933 0.068597 0.4186 -1.000568
2010-05-11 05:43:54 51°19.611 2°56.785 18.5888 0.068597 0.418616 -1.000568
2010-05-11 05:44:00 51°19.619 2°56.814 18.6059 0.068597 0.4186 -1.000568
2010-05-11 05:44:05 51°19.626 2°56.838 18.5948 0.068597 0.418592 -1.035392
2010-05-11 05:44:10 51°19.632 2°56.863 18.6056 0.068597 0.4186 -1.000568
2010-05-11 05:44:14 51°19.638 2°56.883 18.6051 0.068597 0.4186 -1.000568
2010-05-11 05:44:20 51°19.646 2°56.912 18.609 0.068597 0.4186 -1.000568
2010-05-11 05:44:26 51°19.654 2°56.94 18.6067 0.068597 0.418592 -1.000568
2010-05-11 05:44:30 51°19.66 2°56.96 18.6118 0.068597 0.4186 -1.035392
2010-05-11 05:44:34 51°19.665 2°56.979 18.6106 0.068597 0.418608 -1.000568
2010-05-11 05:44:40 51°19.673 2°57.008 18.6114 0.068597 0.4186 -1.000568
2010-05-11 05:44:46 51°19.681 2°57.037 18.5923 0.068597 0.418624 -1.035392
2010-05-11 05:44:50 51°19.687 2°57.057 18.6215 0.068597 0.418624 -1.035392
2010-05-11 05:44:54 51°19.691 2°57.077 18.5979 0.068597 0.418608 -1.000568
2010-05-11 05:45:00 51°19.7 2°57.105 18.6143 0.068597 0.418639 -1.000568
2010-05-11 05:45:06 51°19.707 2°57.134 18.5981 0.068597 0.4186 -1.000568
2010-05-11 05:45:10 51°19.713 2°57.153 18.6142 0.068597 0.418647 -1.035392
2010-05-11 05:45:14 51°19.718 2°57.173 18.6109 0.068597 0.418624 -1.000568
2010-05-11 05:45:20 51°19.727 2°57.201 18.6143 0.068597 0.418624 -1.000568
2010-05-11 05:45:26 51°19.734 2°57.231 18.6222 0.068597 0.418631 -1.000568
2010-05-11 05:45:30 51°19.74 2°57.25 18.6179 0.068597 0.418631 -1.035392
2010-05-11 05:45:34 51°19.744 2°57.27 18.6034 0.068597 0.418631 -1.000568
2010-05-11 05:45:40 51°19.753 2°57.298 18.6231 0.068597 0.418631 -1.000568
2010-05-11 05:45:46 51°19.761 2°57.327 18.6094 0.068597 0.418631 -0.965744
2010-05-11 05:45:50 51°19.766 2°57.346 18.6164 0.068597 0.418631 -0.965744
2010-05-11 05:45:54 51°19.771 2°57.365 18.6124 0.068597 0.418631 -1.000568
2010-05-11 05:46:00 51°19.78 2°57.393 18.6111 0.068597 0.418647 -1.000568
2010-05-11 05:46:05 51°19.786 2°57.417 18.6161 0.068597 0.418631 -1.000568
2010-05-11 05:46:10 51°19.793 2°57.441 18.6071 0.068597 0.418647 -1.000568
2010-05-11 05:46:14 51°19.799 2°57.46 18.6195 0.068597 0.418647 -1.000568
2010-05-11 05:46:20 51°19.807 2°57.489 18.6103 0.068597 0.418647 -1.000568
2010-05-11 05:46:25 51°19.814 2°57.513 18.6232 0.068597 0.418647 -1.000568
2010-05-11 05:46:30 51°19.82 2°57.537 18.6223 0.068597 0.418647 -1.000568
2010-05-11 05:46:34 51°19.825 2°57.557 18.609 0.068597 0.418647 -1.035392
2010-05-11 05:46:40 51°19.833 2°57.585 18.6214 0.068597 0.418639 -1.000568
2010-05-11 05:46:46 51°19.841 2°57.615 18.612 0.068597 0.418639 -1.035392
2010-05-11 05:46:50 51°19.847 2°57.634 18.6133 0.068597 0.418639 -1.035392
2010-05-11 05:46:56 51°19.854 2°57.663 18.6184 0.068597 0.418655 -0.965744
2010-05-11 05:47:00 51°19.861 2°57.682 18.6284 0.068597 0.418663 -1.000568
2010-05-11 05:47:06 51°19.868 2°57.711 18.6094 0.068597 0.418655 -1.000568
2010-05-11 05:47:10 51°19.874 2°57.73 18.6144 0.068597 0.418678 -1.000568
2010-05-11 05:47:14 51°19.879 2°57.75 18.6147 0.068597 0.41867 -1.000568
2010-05-11 05:47:20 51°19.887 2°57.779 18.6202 0.068597 0.41867 -1.000568
2010-05-11 05:47:26 51°19.896 2°57.808 18.6213 0.068597 0.418678 -1.000568
2010-05-11 05:47:30 51°19.901 2°57.827 18.6186 0.068597 0.418678 -1.035392
2010-05-11 05:47:34 51°19.906 2°57.846 18.6151 0.068597 0.418678 -1.035392
2010-05-11 05:47:40 51°19.915 2°57.875 18.6167 0.068597 0.418694 -1.035392
2010-05-11 05:47:46 51°19.923 2°57.905 18.6302 0.068597 0.418678 -1.000568
2010-05-11 05:47:50 51°19.928 2°57.924 18.6321 0.068597 0.418678 -1.000568
2010-05-11 05:47:54 51°19.934 2°57.943 18.6352 0.068597 0.418694 -1.000568
2010-05-11 05:48:00 51°19.942 2°57.972 18.6254 0.068597 0.418686 -1.035392
2010-05-11 05:48:05 51°19.949 2°57.996 18.6214 0.068597 0.418678 -1.000568
2010-05-11 05:48:10 51°19.956 2°58.02 18.6212 0.068597 0.418694 -1.000568
2010-05-11 05:48:14 51°19.962 2°58.039 18.6339 0.068597 0.418694 -0.965744
2010-05-11 05:48:20 51°19.97 2°58.068 18.6391 0.068597 0.418694 -0.965744
2010-05-11 05:48:25 51°19.977 2°58.092 18.6189 0.068597 0.418663 -1.000568
2010-05-11 05:48:30 51°19.984 2°58.116 18.6302 0.068597 0.418694 -1.035392
2010-05-11 05:48:34 51°19.989 2°58.135 18.6385 0.068597 0.418702 -1.035392
2010-05-11 05:48:40 51°19.996 2°58.164 18.6244 0.068597 0.418678 -1.000568
2010-05-11 05:48:45 51°20.004 2°58.188 18.6319 0.068597 0.418717 -1.000568
2010-05-11 05:48:50 51°20.01 2°58.212 18.6315 0.068597 0.418717 -1.000568
2010-05-11 05:48:54 51°20.015 2°58.231 18.6204 0.068597 0.418694 -1.035392
2010-05-11 05:49:00 51°20.023 2°58.26 18.6418 0.068597 0.418709 -1.000568
2010-05-11 05:49:06 51°20.03 2°58.289 18.6256 0.068597 0.418702 -1.000568
2010-05-11 05:49:10 51°20.036 2°58.308 18.6385 0.068597 0.418733 -1.000568
2010-05-11 05:49:16 51°20.043 2°58.337 18.6361 0.068597 0.418709 -1.000568
2010-05-11 05:49:20 51°20.049 2°58.356 18.6409 0.068597 0.418709 -1.000568
2010-05-11 05:49:26 51°20.057 2°58.385 18.6334 0.068597 0.418733 -1.035392
2010-05-11 05:49:30 51°20.063 2°58.404 18.6421 0.068597 0.418717 -1.000568
2010-05-11 05:49:34 51°20.068 2°58.423 18.6338 0.068597 0.418717 -0.965744
2010-05-11 05:49:40 51°20.077 2°58.451 18.6406 0.068597 0.418733 -1.000568
2010-05-11 05:49:46 51°20.084 2°58.481 18.6387 0.068597 0.418725 -1.000568
2010-05-11 05:49:50 51°20.09 2°58.499 18.6487 0.068597 0.418725 -1.000568
2010-05-11 05:49:54 51°20.095 2°58.519 18.6471 0.068597 0.418717 -1.000568
2010-05-11 05:50:00 51°20.103 2°58.548 18.6299 0.068597 0.418733 -1.000568
2010-05-11 05:50:06 51°20.111 2°58.576 18.6509 0.068597 0.418741 -1.000568
2010-05-11 05:50:10 51°20.116 2°58.595 18.6365 0.068597 0.418733 -1.035392
2010-05-11 05:50:14 51°20.122 2°58.614 18.644 0.068597 0.418741 -1.000568
2010-05-11 05:50:20 51°20.13 2°58.643 18.6409 0.068597 0.418741 -1.000568
2010-05-11 05:50:25 51°20.137 2°58.667 18.6387 0.068597 0.418741 -1.000568
2010-05-11 05:50:30 51°20.144 2°58.69 18.6417 0.068597 0.418741 -1.000568
2010-05-11 05:50:34 51°20.149 2°58.709 18.6433 0.068597 0.418725 -1.000568
2010-05-11 05:50:40 51°20.158 2°58.738 18.6497 0.068597 0.418756 -1.000568
2010-05-11 05:50:45 51°20.164 2°58.762 18.6338 0.068597 0.418741 -1.000568
2010-05-11 05:50:50 51°20.171 2°58.785 18.655 0.068597 0.418741 -1.000568
2010-05-11 05:50:54 51°20.176 2°58.805 18.6406 0.068597 0.418749 -0.965744
2010-05-11 05:51:00 51°20.184 2°58.833 18.6512 0.068597 0.418756 -1.035392
2010-05-11 05:51:06 51°20.192 2°58.862 18.6495 0.068597 0.418725 -1.000568
2010-05-11 05:51:10 51°20.197 2°58.881 18.6393 0.068597 0.418756 -1.035392
2010-05-11 05:51:14 51°20.202 2°58.9 18.6485 0.068597 0.418756 -1.035392
2010-05-11 05:51:20 51°20.21 2°58.929 18.6589 0.068597 0.418756 -1.035392
2010-05-11 05:51:26 51°20.218 2°58.958 18.642 0.068597 0.418749 -1.000568
2010-05-11 05:51:30 51°20.224 2°58.976 18.6482 0.068597 0.418772 -1.035392
2010-05-11 05:51:34 51°20.229 2°58.996 18.6611 0.068597 0.418741 -1.035392
2010-05-11 05:51:40 51°20.237 2°59.025 18.6561 0.068597 0.418764 -1.000568
2010-05-11 05:51:46 51°20.246 2°59.053 18.6631 0.068597 0.418756 -1.000568
2010-05-11 05:51:50 51°20.251 2°59.073 18.6469 0.068597 0.418756 -1.000568
2010-05-11 05:51:54 51°20.256 2°59.092 18.6543 0.068597 0.418764 -1.035392
2010-05-11 05:52:00 51°20.265 2°59.12 18.6631 0.068597 0.418764 -1.000568
2010-05-11 05:52:06 51°20.273 2°59.148 18.6595 0.068597 0.41878 -1.035392
2010-05-11 05:52:10 51°20.278 2°59.168 18.6614 0.068597 0.418764 -1.000568
2010-05-11 05:52:14 51°20.284 2°59.187 18.6606 0.068597 0.418772 -1.035392
2010-05-11 05:52:20 51°20.292 2°59.216 18.6626 0.068597 0.418772 -1.035392
2010-05-11 05:52:26 51°20.301 2°59.244 18.6689 0.068597 0.418764 -1.000568
2010-05-11 05:52:30 51°20.306 2°59.264 18.6546 0.068597 0.418772 -1.000568
2010-05-11 05:52:34 51°20.311 2°59.283 18.6649 0.068597 0.41878 -1.000568
2010-05-11 05:52:40 51°20.319 2°59.312 18.6633 0.068597 0.418772 -0.965744
2010-05-11 05:52:45 51°20.327 2°59.336 18.6557 0.068597 0.418811 -1.000568
2010-05-11 05:52:50 51°20.333 2°59.36 18.6782 0.068597 0.418811 -1.000568
2010-05-11 05:52:54 51°20.338 2°59.379 18.6538 0.068597 0.41878 -1.000568
2010-05-11 05:53:00 51°20.346 2°59.408 18.6736 0.068493 0.418168 -1.000568
2010-05-11 05:53:05 51°20.352 2°59.433 18.6635 0.068597 0.418795 -1.000568
2010-05-11 05:53:10 51°20.36 2°59.456 18.6657 0.068597 0.418827 -1.000568
2010-05-11 05:53:14 51°20.364 2°59.475 18.6748 0.068597 0.418803 -1.035392
2010-05-11 05:53:20 51°20.373 2°59.504 18.6682 0.068597 0.418803 -1.035392
2010-05-11 05:53:26 51°20.381 2°59.533 18.6627 0.068493 0.418168 -1.000568
2010-05-11 05:53:30 51°20.387 2°59.552 18.6671 0.068597 0.418811 -1.000568
2010-05-11 05:53:36 51°20.395 2°59.58 18.6682 0.068597 0.418811 -1.000568
2010-05-11 05:53:40 51°20.4 2°59.599 18.6707 0.068597 0.418819 -1.000568
2010-05-11 05:53:46 51°20.408 2°59.628 18.6649 0.068597 0.418811 -1.000568
2010-05-11 05:53:50 51°20.414 2°59.647 18.6745 0.068597 0.418811 -1.000568
2010-05-11 05:53:54 51°20.419 2°59.666 18.6684 0.068597 0.418811 -1.000568
2010-05-11 05:54:00 51°20.428 2°59.694 18.6704 0.068597 0.418811 -1.000568
2010-05-11 05:54:06 51°20.436 2°59.723 18.6682 0.068597 0.418811 -1.000568
2010-05-11 05:54:10 51°20.442 2°59.741 18.6824 0.068597 0.418827 -1.000568
2010-05-11 05:54:14 51°20.447 2°59.76 18.6838 0.068597 0.418803 -1.035392
2010-05-11 05:54:21 51°20.457 2°59.793 18.6668 0.068597 0.418803 -1.035392
2010-05-11 05:54:26 51°20.464 2°59.817 18.6866 0.068597 0.41885 -1.000568
2010-05-11 05:54:30 51°20.469 2°59.837 18.6781 0.068597 0.418827 -1.000568
2010-05-11 05:54:34 51°20.474 2°59.856 18.6782 0.068597 0.41885 -1.000568
2010-05-11 05:54:40 51°20.482 2°59.884 18.6839 0.068597 0.418827 -1.000568
2010-05-11 05:54:45 51°20.489 2°59.908 18.6736 0.068597 0.418842 -1.000568
2010-05-11 05:54:50 51°20.495 2°59.933 18.6858 0.068597 0.418842 -1.000568
2010-05-11 05:54:54 51°20.5 2°59.952 18.6696 0.068597 0.418827 -0.965744
2010-05-11 05:55:00 51°20.508 2°59.98 18.6829 0.068493 0.418192 -1.000568
2010-05-11 05:55:05 51°20.515 3°0.004 18.6747 0.068597 0.418834 -1.035392
2010-05-11 05:55:10 51°20.522 3°0.028 18.6786 0.068597 0.41885 -1.000568
2010-05-11 05:55:14 51°20.528 3°0.047 18.6712 0.068597 0.418834 -1.000568
2010-05-11 05:55:20 51°20.536 3°0.075 18.689 0.068597 0.418834 -1.000568
2010-05-11 05:55:25 51°20.542 3°0.099 18.6858 0.068597 0.41885 -1.035392
2010-05-11 05:55:30 51°20.549 3°0.123 18.684 0.068493 0.418207 -1.035392
2010-05-11 05:55:34 51°20.555 3°0.142 18.6789 0.068597 0.418858 -0.965744
2010-05-11 05:55:40 51°20.563 3°0.17 18.6885 0.068597 0.418866 -1.000568
2010-05-11 05:55:46 51°20.571 3°0.198 18.6796 0.068493 0.418207 -1.035392
2010-05-11 05:55:50 51°20.577 3°0.217 18.6888 0.068493 0.418207 -1.035392
2010-05-11 05:55:56 51°20.585 3°0.246 18.6853 0.068597 0.418866 -1.000568
2010-05-11 05:56:00 51°20.591 3°0.265 18.6853 0.068597 0.418858 -1.035392
2010-05-11 05:56:06 51°20.599 3°0.293 18.6885 0.068493 0.418207 -1.035392
2010-05-11 05:56:10 51°20.604 3°0.312 18.6926 0.068493 0.418199 -1.000568
2010-05-11 05:56:14 51°20.609 3°0.331 18.6954 0.068493 0.418199 -1.000568
2010-05-11 05:56:20 51°20.618 3°0.36 18.6904 0.068493 0.418199 -1.000568
2010-05-11 05:56:26 51°20.626 3°0.388 18.6978 0.068597 0.418858 -1.000568
2010-05-11 05:56:30 51°20.631 3°0.407 18.6957 0.068597 0.418866 -1.035392
2010-05-11 05:56:34 51°20.637 3°0.426 18.6808 0.068597 0.418873 -1.000568
2010-05-11 05:56:40 51°20.645 3°0.455 18.6953 0.068597 0.418873 -1.000568
2010-05-11 05:56:46 51°20.654 3°0.483 18.6996 0.068597 0.418881 -1.035392
2010-05-11 05:56:50 51°20.659 3°0.502 18.702 0.068597 0.418881 -1.035392
2010-05-11 05:56:54 51°20.664 3°0.521 18.696 0.068597 0.418881 -1.000568
2010-05-11 05:57:00 51°20.673 3°0.549 18.7049 0.068597 0.418897 -1.035392
2010-05-11 05:57:06 51°20.681 3°0.578 18.6893 0.068597 0.418889 -1.000568
2010-05-11 05:57:10 51°20.687 3°0.597 18.6995 0.068493 0.418238 -1.000568
2010-05-11 05:57:14 51°20.692 3°0.616 18.6952 0.068597 0.418905 -1.000568
2010-05-11 05:57:20 51°20.701 3°0.645 18.7049 0.068597 0.418905 -1.000568
2010-05-11 05:57:25 51°20.707 3°0.669 18.6933 0.068493 0.418231 -1.035392
2010-05-11 05:57:30 51°20.715 3°0.692 18.7011 0.068493 0.418254 -1.035392
2010-05-11 05:57:34 51°20.719 3°0.711 18.6978 0.068493 0.418231 -1.035392
2010-05-11 05:57:40 51°20.727 3°0.739 18.6977 0.068493 0.418254 -1.035392
2010-05-11 05:57:46 51°20.735 3°0.769 18.7064 0.068493 0.418246 -1.035392
2010-05-11 05:57:50 51°20.741 3°0.787 18.6952 0.068493 0.418246 -1.035392
2010-05-11 05:57:54 51°20.747 3°0.806 18.7038 0.068597 0.418905 -1.000568
2010-05-11 05:58:00 51°20.755 3°0.835 18.7097 0.068597 0.418905 -1.035392
2010-05-11 05:58:06 51°20.764 3°0.863 18.7066 0.068493 0.418262 -1.035392
2010-05-11 05:58:10 51°20.769 3°0.882 18.7123 0.068493 0.418254 -1.035392
2010-05-11 05:58:14 51°20.775 3°0.901 18.708 0.068597 0.418905 -1.000568
2010-05-11 05:58:20 51°20.784 3°0.929 18.7063 0.068597 0.418905 -1.000568
2010-05-11 05:58:26 51°20.793 3°0.957 18.7068 0.068493 0.418246 -1.000568
2010-05-11 05:58:30 51°20.799 3°0.976 18.7184 0.068597 0.418912 -1.035392
2010-05-11 05:58:34 51°20.804 3°0.995 18.713 0.068493 0.418262 -1.000568
2010-05-11 05:58:41 51°20.814 3°1.029 18.7036 0.068493 0.418262 -1.000568
2010-05-11 05:58:46 51°20.821 3°1.053 18.7088 0.068493 0.418262 -1.000568
2010-05-11 05:58:50 51°20.826 3°1.072 18.69 0.068493 0.418262 -1.000568
2010-05-11 05:58:54 51°20.832 3°1.091 18.7199 0.068493 0.418293 -1.000568
2010-05-11 05:59:00 51°20.84 3°1.12 18.7137 0.068493 0.418246 -1.000568
2010-05-11 05:59:06 51°20.848 3°1.149 18.7192 0.068597 0.418952 -1.035392
2010-05-11 05:59:10 51°20.854 3°1.169 18.7075 0.068597 0.418967 -1.035392
2010-05-11 05:59:14 51°20.86 3°1.187 18.7273 0.068597 0.418928 -1.000568
2010-05-11 05:59:20 51°20.868 3°1.216 18.7079 0.068597 0.418928 -1.000568
2010-05-11 05:59:25 51°20.875 3°1.24 18.7135 0.068493 0.418293 -1.035392
2010-05-11 05:59:30 51°20.882 3°1.264 18.7214 0.068493 0.418285 -1.000568
2010-05-11 05:59:34 51°20.888 3°1.283 18.725 0.068493 0.418293 -1.035392
2010-05-11 05:59:40 51°20.896 3°1.312 18.7278 0.068597 0.418944 -1.000568
2010-05-11 05:59:45 51°20.903 3°1.335 18.7102 0.068493 0.418277 -1.000568
2010-05-11 05:59:50 51°20.911 3°1.359 18.7295 0.068493 0.418277 -1.000568
2010-05-11 05:59:54 51°20.916 3°1.378 18.7271 0.068493 0.418293 -1.000568
2010-05-11 06:00:00 51°20.925 3°1.407 18.7151 0.068493 0.418293 -1.000568
2010-05-11 06:00:06 51°20.933 3°1.436 18.7269 0.068493 0.418293 -1.035392
2010-05-11 06:00:10 51°20.939 3°1.455 18.7171 0.068493 0.418293 -1.000568
2010-05-11 06:00:15 51°20.946 3°1.479 18.7323 0.068597 0.418944 -1.000568
2010-05-11 06:00:21 51°20.954 3°1.508 18.7236 0.068597 0.418944 -1.000568
2010-05-11 06:00:26 51°20.961 3°1.533 18.7356 0.068493 0.418309 -1.000568
2010-05-11 06:00:30 51°20.967 3°1.552 18.7329 0.068493 0.418293 -1.035392
2010-05-11 06:00:34 51°20.973 3°1.571 18.7272 0.068493 0.418316 -1.000568
2010-05-11 06:00:40 51°20.982 3°1.6 18.7315 0.068493 0.418309 -1.000568
2010-05-11 06:00:46 51°20.99 3°1.629 18.7212 0.068493 0.418293 -1.000568
2010-05-11 06:00:50 51°20.996 3°1.648 18.7251 0.068493 0.418293 -1.000568
2010-05-11 06:00:54 51°21.001 3°1.667 18.7289 0.068493 0.418301 -1.000568
2010-05-11 06:01:00 51°21.01 3°1.696 18.7326 0.068493 0.418301 -1.000568
2010-05-11 06:01:06 51°21.019 3°1.725 18.7192 0.068493 0.418293 -1.035392
2010-05-11 06:01:10 51°21.025 3°1.744 18.7268 0.068493 0.418301 -1.035392
2010-05-11 06:01:14 51°21.03 3°1.764 18.736 0.068493 0.418332 -1.000568
2010-05-11 06:01:20 51°21.039 3°1.792 18.7237 0.068493 0.418332 -1.000568
2010-05-11 06:01:25 51°21.046 3°1.816 18.7451 0.068493 0.418332 -1.000568
2010-05-11 06:01:30 51°21.053 3°1.841 18.741 0.068493 0.418309 -1.000568
2010-05-11 06:01:34 51°21.06 3°1.86 18.7434 0.068493 0.41834 -1.035392
2010-05-11 06:01:40 51°21.067 3°1.89 18.7315 0.068493 0.418316 -0.965744
2010-05-11 06:01:45 51°21.075 3°1.913 18.745 0.068493 0.41834 -1.035392
2010-05-11 06:01:50 51°21.082 3°1.938 18.747 0.068493 0.41834 -1.035392
2010-05-11 06:01:54 51°21.088 3°1.957 18.7443 0.068493 0.418316 -1.000568
2010-05-11 06:02:00 51°21.096 3°1.986 18.7466 0.068493 0.41834 -1.035392
2010-05-11 06:02:05 51°21.104 3°2.01 18.7429 0.068493 0.418332 -1.000568
2010-05-11 06:02:10 51°21.111 3°2.035 18.7451 0.068597 0.418975 -1.035392
2010-05-11 06:02:14 51°21.117 3°2.053 18.7457 0.068493 0.418332 -1.000568
2010-05-11 06:02:20 51°21.126 3°2.083 18.7454 0.068493 0.418332 -1.000568
2010-05-11 06:02:26 51°21.135 3°2.112 18.7513 0.068493 0.418332 -1.035392
2010-05-11 06:02:30 51°21.14 3°2.131 18.7421 0.068493 0.41834 -1.035392
2010-05-11 06:02:34 51°21.146 3°2.151 18.7388 0.068493 0.418324 -1.000568
2010-05-11 06:02:40 51°21.155 3°2.18 18.7501 0.068493 0.41834 -1.000568
2010-05-11 06:02:46 51°21.164 3°2.209 18.756 0.068493 0.418332 -1.000568
2010-05-11 06:02:50 51°21.169 3°2.229 18.7523 0.068493 0.418332 -1.000568
2010-05-11 06:02:54 51°21.175 3°2.247 18.7463 0.068493 0.418355 -1.035392
2010-05-11 06:03:00 51°21.184 3°2.277 18.7486 0.068493 0.418355 -1.035392
2010-05-11 06:03:06 51°21.192 3°2.307 18.7425 0.068493 0.418363 -1.000568
2010-05-11 06:03:10 51°21.198 3°2.326 18.7389 0.068493 0.418371 -1.035392
2010-05-11 06:03:14 51°21.205 3°2.345 18.7439 0.068493 0.418363 -1.035392
2010-05-11 06:03:20 51°21.213 3°2.375 18.7466 0.068493 0.418363 -1.035392
2010-05-11 06:03:26 51°21.222 3°2.404 18.7581 0.068493 0.418371 -1.000568
2010-05-11 06:03:30 51°21.228 3°2.424 18.7491 0.068493 0.418348 -1.000568
2010-05-11 06:03:34 51°21.234 3°2.442 18.7637 0.068493 0.418355 -1.035392
2010-05-11 06:03:40 51°21.242 3°2.472 18.7591 0.068493 0.418355 -1.035392
2010-05-11 06:03:45 51°21.25 3°2.496 18.7661 0.068493 0.418363 -1.035392
2010-05-11 06:03:50 51°21.257 3°2.52 18.7574 0.068493 0.418363 -1.035392
2010-05-11 06:03:54 51°21.262 3°2.54 18.7603 0.068493 0.418371 -1.035392
2010-05-11 06:04:00 51°21.271 3°2.569 18.76 0.068493 0.418387 -1.000568
2010-05-11 06:04:00 51°21.271 3°2.569 18.76 0.068493 0.418387 -1.000568
2010-05-11 06:04:10 51°21.286 3°2.617 18.7681 0.068493 0.418379 -1.000568
2010-05-11 06:04:14 51°21.291 3°2.637 18.7622 0.068493 0.418379 -1.000568
2010-05-11 06:04:16 51°21.295 3°2.646 18.7622 0.068493 0.418379 -1.000568
2010-05-11 06:04:33 51°21.319 3°2.728 18.7612 0.068493 0.418379 -1.035392
2010-05-11 06:04:38 51°21.327 3°2.752 18.7657 0.068493 0.418379 -1.035392
2010-05-11 06:04:43 51°21.334 3°2.777 18.7733 0.068493 0.41841 -1.000568
2010-05-11 06:04:49 51°21.343 3°2.805 18.7751 0.068493 0.418387 -1.035392
2010-05-11 06:04:54 51°21.351 3°2.829 18.773 0.068493 0.418394 -0.965744
2010-05-11 06:04:58 51°21.357 3°2.848 18.7639 0.068493 0.418394 -1.000568
2010-05-11 06:05:03 51°21.364 3°2.872 18.764 0.068493 0.418402 -1.000568
2010-05-11 06:05:09 51°21.373 3°2.901 18.7642 0.068493 0.418402 -1.000568
2010-05-11 06:05:14 51°21.38 3°2.925 18.7749 0.068493 0.418394 -1.000568
2010-05-11 06:05:18 51°21.386 3°2.944 18.7671 0.068493 0.418394 -0.965744
2010-05-11 06:05:23 51°21.393 3°2.969 18.7686 0.068493 0.418402 -1.000568
2010-05-11 06:05:29 51°21.402 3°2.997 18.7823 0.068493 0.418387 -1.000568
2010-05-11 06:05:34 51°21.41 3°3.021 18.759 0.068493 0.41841 -0.965744
2010-05-11 06:05:38 51°21.415 3°3.041 18.7673 0.068493 0.41841 -0.965744
2010-05-11 06:05:43 51°21.421 3°3.066 18.7685 0.068493 0.41841 -1.000568
2010-05-11 06:05:49 51°21.428 3°3.096 18.7651 0.068493 0.418394 -1.000568
2010-05-11 06:05:54 51°21.433 3°3.122 18.7838 0.068493 0.418402 -1.035392
2010-05-11 06:05:58 51°21.435 3°3.143 18.7635 0.068493 0.418394 -1.035392
2010-05-11 06:06:03 51°21.44 3°3.168 18.7843 0.068493 0.418402 -0.965744
2010-05-11 06:06:09 51°21.443 3°3.199 18.7845 0.068493 0.418402 -0.965744
2010-05-11 06:06:13 51°21.445 3°3.221 18.7732 0.068493 0.418426 -1.000568
2010-05-11 06:06:18 51°21.448 3°3.247 18.7856 0.068493 0.418426 -1.000568
2010-05-11 06:06:23 51°21.45 3°3.274 18.7875 0.068493 0.418418 -1.000568
2010-05-11 06:06:29 51°21.453 3°3.305 18.7948 0.068493 0.418433 -1.000568
2010-05-11 06:06:33 51°21.455 3°3.327 18.772 0.068493 0.418457 -1.000568
2010-05-11 06:06:38 51°21.458 3°3.353 18.8037 0.068493 0.418457 -1.000568
2010-05-11 06:06:43 51°21.459 3°3.38 18.7703 0.068493 0.418426 -1.000568
2010-05-11 06:06:49 51°21.463 3°3.411 18.8051 0.068493 0.418488 -1.035392
2010-05-11 06:06:53 51°21.463 3°3.433 18.7735 0.068493 0.418426 -1.035392
2010-05-11 06:06:58 51°21.467 3°3.459 18.7978 0.068493 0.41848 -1.000568
2010-05-11 06:07:03 51°21.468 3°3.486 18.7863 0.068493 0.418457 -1.035392
2010-05-11 06:07:09 51°21.472 3°3.517 18.7972 0.068493 0.418457 -1.035392
2010-05-11 06:07:14 51°21.472 3°3.545 18.7789 0.068493 0.418488 -1.000568
2010-05-11 06:07:18 51°21.476 3°3.566 18.7871 0.068493 0.418488 -1.000568
2010-05-11 06:07:23 51°21.477 3°3.592 18.8034 0.068493 0.418449 -1.000568
2010-05-11 06:07:28 51°21.479 3°3.618 18.7824 0.068493 0.418496 -1.000568
2010-05-11 06:07:34 51°21.482 3°3.65 18.8032 0.068493 0.418433 -0.965744
2010-05-11 06:07:38 51°21.483 3°3.672 18.7865 0.068493 0.418433 -0.965744
2010-05-11 06:07:43 51°21.486 3°3.698 18.8105 0.068493 0.418465 -1.000568
2010-05-11 06:07:49 51°21.488 3°3.73 18.7924 0.068493 0.418426 -1.000568
2010-05-11 06:07:54 51°21.491 3°3.756 18.8116 0.068493 0.418465 -1.000568
2010-05-11 06:07:58 51°21.493 3°3.777 18.7953 0.068493 0.418441 -1.000568
2010-05-11 06:08:03 51°21.496 3°3.803 18.8072 0.068493 0.418457 -1.000568
2010-05-11 06:08:09 51°21.501 3°3.834 18.8015 0.068493 0.418457 -1.000568
2010-05-11 06:08:13 51°21.503 3°3.856 18.799 0.068493 0.418465 -1.000568
2010-05-11 06:08:18 51°21.508 3°3.882 18.8074 0.068493 0.418457 -1.000568
2010-05-11 06:08:23 51°21.511 3°3.909 18.7966 0.068493 0.418433 -1.000568
2010-05-11 06:08:29 51°21.516 3°3.94 18.8 0.068493 0.418457 -1.000568
2010-05-11 06:08:33 51°21.519 3°3.961 18.7979 0.068493 0.418449 -1.000568
2010-05-11 06:08:38 51°21.523 3°3.988 18.8049 0.068493 0.418449 -1.000568
2010-05-11 06:08:43 51°21.528 3°4.014 18.8018 0.068493 0.418441 -1.000568
2010-05-11 06:08:49 51°21.532 3°4.045 18.8 0.068493 0.418441 -1.035392
2010-05-11 06:08:53 51°21.535 3°4.066 18.7966 0.068493 0.418449 -1.000568
2010-05-11 06:08:58 51°21.54 3°4.092 18.8125 0.068493 0.418465 -1.035392
2010-05-11 06:09:03 51°21.543 3°4.119 18.8049 0.068493 0.418441 -1.000568
2010-05-11 06:09:09 51°21.549 3°4.149 18.8075 0.068493 0.418441 -1.000568
2010-05-11 06:09:13 51°21.552 3°4.17 18.8089 0.068493 0.41848 -1.035392
2010-05-11 06:09:18 51°21.556 3°4.196 18.8064 0.068493 0.418457 -1.000568
2010-05-11 06:09:23 51°21.56 3°4.222 18.8132 0.068493 0.41848 -1.000568
2010-05-11 06:09:29 51°21.565 3°4.253 18.8202 0.068493 0.418473 -1.000568
2010-05-11 06:09:34 51°21.57 3°4.278 18.8029 0.068493 0.418488 -1.000568
2010-05-11 06:09:38 51°21.573 3°4.299 18.8144 0.068493 0.418488 -1.000568
2010-05-11 06:09:43 51°21.577 3°4.325 18.8196 0.068493 0.41848 -1.035392
2010-05-11 06:09:49 51°21.582 3°4.356 18.8178 0.068493 0.418488 -1.000568
2010-05-11 06:09:54 51°21.586 3°4.382 18.8138 0.068493 0.418496 -1.035392
2010-05-11 06:09:58 51°21.589 3°4.403 18.8183 0.068493 0.41848 -1.000568
2010-05-11 06:10:03 51°21.593 3°4.429 18.8049 0.068493 0.418488 -1.035392
2010-05-11 06:10:09 51°21.599 3°4.46 18.8228 0.068493 0.418488 -1.035392
2010-05-11 06:10:14 51°21.602 3°4.487 18.8113 0.068493 0.418496 -1.000568
2010-05-11 06:10:18 51°21.606 3°4.507 18.8266 0.068493 0.418488 -1.035392
2010-05-11 06:10:23 51°21.61 3°4.533 18.8143 0.068493 0.41848 -1.035392
2010-05-11 06:10:29 51°21.615 3°4.564 18.8181 0.068493 0.418512 -0.965744
2010-05-11 06:10:33 51°21.619 3°4.585 18.8266 0.068493 0.418496 -1.000568
2010-05-11 06:10:38 51°21.623 3°4.611 18.8186 0.068493 0.418496 -1.000568
2010-05-11 06:10:43 51°21.627 3°4.637 18.8283 0.068493 0.418519 -1.000568
2010-05-11 06:10:49 51°21.632 3°4.668 18.8186 0.068493 0.418512 -1.000568
2010-05-11 06:10:53 51°21.636 3°4.689 18.8348 0.068493 0.418512 -0.965744
2010-05-11 06:10:58 51°21.639 3°4.715 18.8141 0.068493 0.418512 -1.000568
2010-05-11 06:11:03 51°21.644 3°4.74 18.8349 0.068493 0.418504 -1.035392
2010-05-11 06:11:09 51°21.648 3°4.772 18.8158 0.068493 0.418504 -1.035392
2010-05-11 06:11:13 51°21.653 3°4.793 18.8448 0.068493 0.418527 -1.000568
2010-05-11 06:11:18 51°21.656 3°4.819 18.8173 0.068493 0.418488 -1.000568
2010-05-11 06:11:23 51°21.661 3°4.844 18.829 0.068493 0.418543 -1.000568
2010-05-11 06:11:29 51°21.665 3°4.876 18.8158 0.068493 0.418519 -1.000568
2010-05-11 06:11:34 51°21.671 3°4.901 18.8319 0.068493 0.418527 -1.000568
2010-05-11 06:11:38 51°21.672 3°4.922 18.8195 0.068493 0.418527 -1.000568
2010-05-11 06:11:43 51°21.678 3°4.947 18.8311 0.068493 0.418535 -0.965744
2010-05-11 06:11:49 51°21.683 3°4.979 18.824 0.068493 0.418512 -1.000568
2010-05-11 06:11:54 51°21.688 3°5.004 18.8336 0.068493 0.418535 -0.965744
2010-05-11 06:11:58 51°21.69 3°5.025 18.8298 0.068493 0.418504 -1.000568
2010-05-11 06:12:03 51°21.695 3°5.051 18.8327 0.068493 0.418558 -1.000568
2010-05-11 06:12:08 51°21.699 3°5.077 18.8434 0.068493 0.418558 -1.000568
2010-05-11 06:12:13 51°21.703 3°5.103 18.8318 0.068493 0.418512 -1.035392
2010-05-11 06:12:18 51°21.707 3°5.129 18.8419 0.068493 0.418535 -1.000568
2010-05-11 06:12:23 51°21.712 3°5.154 18.8362 0.068493 0.418558 -1.000568
2010-05-11 06:12:28 51°21.716 3°5.18 18.8359 0.068493 0.418535 -1.000568
2010-05-11 06:12:34 51°21.721 3°5.211 18.8441 0.068493 0.418551 -1.000568
2010-05-11 06:12:38 51°21.724 3°5.231 18.847 0.068493 0.418551 -1.000568
2010-05-11 06:12:43 51°21.729 3°5.257 18.8302 0.068493 0.418543 -1.035392
2010-05-11 06:12:48 51°21.733 3°5.283 18.8405 0.068493 0.418551 -1.035392
2010-05-11 06:12:53 51°21.737 3°5.308 18.832 0.068493 0.418527 -1.000568
2010-05-11 06:12:58 51°21.742 3°5.334 18.8467 0.068493 0.418551 -1.000568
2010-05-11 06:13:03 51°21.744 3°5.36 18.8374 0.068493 0.418535 -1.035392
2010-05-11 06:13:09 51°21.75 3°5.39 18.851 0.068493 0.418535 -1.035392
2010-05-11 06:13:13 51°21.752 3°5.412 18.8288 0.068493 0.418535 -1.000568
2010-05-11 06:13:18 51°21.758 3°5.437 18.8435 0.068493 0.418566 -1.035392
2010-05-11 06:13:23 51°21.761 3°5.462 18.8415 0.068493 0.418519 -1.035392
2010-05-11 06:13:29 51°21.766 3°5.493 18.8472 0.068493 0.418582 -1.000568
2010-05-11 06:13:33 51°21.77 3°5.514 18.8607 0.068493 0.418543 -1.000568
2010-05-11 06:13:38 51°21.773 3°5.54 18.8291 0.068493 0.418543 -1.000568
2010-05-11 06:13:43 51°21.779 3°5.565 18.8599 0.068493 0.418582 -1.035392
2010-05-11 06:13:48 51°21.781 3°5.591 18.832 0.068493 0.418543 -1.035392
2010-05-11 06:13:54 51°21.787 3°5.621 18.8656 0.068493 0.418605 -1.000568
2010-05-11 06:13:58 51°21.789 3°5.643 18.8334 0.068493 0.418566 -1.035392
2010-05-11 06:14:03 51°21.795 3°5.668 18.8438 0.068493 0.418597 -1.035392
2010-05-11 06:14:08 51°21.798 3°5.694 18.8465 0.068493 0.418597 -1.035392
2010-05-11 06:14:14 51°21.804 3°5.724 18.8553 0.068493 0.418574 -1.000568
2010-05-11 06:14:18 51°21.806 3°5.745 18.8549 0.068493 0.418582 -1.035392
2010-05-11 06:14:22 51°21.81 3°5.765 18.8564 0.068493 0.41859 -1.000568
2010-05-11 06:14:28 51°21.814 3°5.796 18.8536 0.068493 0.418574 -1.000568
2010-05-11 06:14:34 51°21.82 3°5.827 18.8537 0.068493 0.418621 -1.000568
2010-05-11 06:14:38 51°21.822 3°5.848 18.8598 0.068493 0.418621 -1.000568
2010-05-11 06:14:43 51°21.826 3°5.874 18.8467 0.068493 0.418566 -1.000568
2010-05-11 06:14:48 51°21.831 3°5.899 18.8688 0.068493 0.418621 -1.000568
2010-05-11 06:14:53 51°21.834 3°5.925 18.8444 0.068493 0.418597 -1.000568
2010-05-11 06:14:58 51°21.839 3°5.951 18.8566 0.068493 0.418582 -1.035392
2010-05-11 06:15:03 51°21.843 3°5.976 18.8636 0.068493 0.418613 -1.000568
2010-05-11 06:15:08 51°21.847 3°6.002 18.8639 0.068493 0.418613 -1.000568
2010-05-11 06:15:14 51°21.853 3°6.033 18.858 0.068493 0.418597 -1.000568
2010-05-11 06:15:18 51°21.855 3°6.054 18.8624 0.068493 0.41859 -1.000568
2010-05-11 06:15:23 51°21.86 3°6.079 18.8622 0.068493 0.418629 -0.965744
2010-05-11 06:15:28 51°21.863 3°6.105 18.8622 0.068493 0.418582 -0.965744
2010-05-11 06:15:34 51°21.87 3°6.136 18.8683 0.068493 0.418637 -1.035392
2010-05-11 06:15:38 51°21.872 3°6.157 18.8598 0.068493 0.418637 -1.035392
2010-05-11 06:15:42 51°21.875 3°6.177 18.8664 0.068493 0.418597 -1.035392
2010-05-11 06:15:48 51°21.88 3°6.208 18.8801 0.068493 0.418629 -1.035392
2010-05-11 06:15:54 51°21.884 3°6.24 18.8624 0.068493 0.418613 -1.035392
2010-05-11 06:15:58 51°21.888 3°6.26 18.8756 0.068493 0.418629 -1.035392
2010-05-11 06:16:03 51°21.891 3°6.286 18.8611 0.068493 0.418621 -1.035392
2010-05-11 06:16:09 51°21.897 3°6.317 18.8734 0.068493 0.418621 -1.035392
2010-05-11 06:16:13 51°21.9 3°6.338 18.8678 0.068493 0.418621 -1.000568
2010-05-11 06:16:18 51°21.905 3°6.364 18.8678 0.068493 0.418613 -1.000568
2010-05-11 06:16:23 51°21.908 3°6.39 18.8675 0.068493 0.418621 -0.965744
2010-05-11 06:16:28 51°21.913 3°6.416 18.8754 0.068493 0.418613 -1.035392
2010-05-11 06:16:34 51°21.918 3°6.447 18.8741 0.068493 0.418613 -1.000568
2010-05-11 06:16:38 51°21.921 3°6.468 18.8691 0.068493 0.418613 -1.000568
2010-05-11 06:16:43 51°21.926 3°6.494 18.8828 0.068493 0.418637 -0.965744
2010-05-11 06:16:48 51°21.929 3°6.52 18.8644 0.068493 0.418613 -1.000568
2010-05-11 06:16:54 51°21.935 3°6.551 18.8785 0.068493 0.418652 -1.000568
2010-05-11 06:16:58 51°21.937 3°6.573 18.8606 0.068493 0.418621 -1.035392
2010-05-11 06:17:02 51°21.942 3°6.593 18.8825 0.068493 0.418644 -1.000568
2010-05-11 06:17:08 51°21.945 3°6.625 18.8719 0.068493 0.418644 -1.000568
2010-05-11 06:17:13 51°21.95 3°6.651 18.8849 0.068493 0.418652 -1.000568
2010-05-11 06:17:18 51°21.954 3°6.677 18.8741 0.068493 0.418644 -1.035392
2010-05-11 06:17:23 51°21.959 3°6.703 18.8846 0.068493 0.418644 -1.000568
2010-05-11 06:17:29 51°21.964 3°6.734 18.8729 0.068493 0.418652 -1.000568
2010-05-11 06:17:33 51°21.967 3°6.755 18.8881 0.068493 0.418652 -1.035392
2010-05-11 06:17:38 51°21.971 3°6.781 18.8779 0.068493 0.418652 -1.035392
2010-05-11 06:17:43 51°21.975 3°6.807 18.8845 0.068493 0.418637 -1.000568
2010-05-11 06:17:48 51°21.979 3°6.833 18.8847 0.068493 0.418652 -1.000568
2010-05-11 06:17:53 51°21.983 3°6.859 18.8774 0.068493 0.418644 -1.000568
2010-05-11 06:17:58 51°21.988 3°6.885 18.8818 0.068493 0.418668 -1.035392
2010-05-11 06:18:03 51°21.991 3°6.911 18.8768 0.068493 0.41866 -1.000568
2010-05-11 06:18:08 51°21.996 3°6.937 18.8893 0.068493 0.41866 -1.000568
2010-05-11 06:18:14 51°22.001 3°6.969 18.8907 0.068493 0.418668 -1.035392
2010-05-11 06:18:18 51°22.005 3°6.989 18.8795 0.068493 0.41866 -1.035392
2010-05-11 06:18:23 51°22.008 3°7.015 18.8916 0.068493 0.418676 -1.000568
2010-05-11 06:18:29 51°22.014 3°7.047 18.8897 0.068493 0.418683 -1.000568
2010-05-11 06:18:34 51°22.017 3°7.073 18.8876 0.068493 0.41866 -1.035392
2010-05-11 06:18:38 51°22.02 3°7.094 18.8879 0.068493 0.41866 -1.035392
2010-05-11 06:18:43 51°22.025 3°7.12 18.8881 0.068493 0.418691 -0.965744
2010-05-11 06:18:48 51°22.029 3°7.146 18.8896 0.068493 0.418676 -0.965744
2010-05-11 06:18:54 51°22.034 3°7.178 18.8814 0.068493 0.418691 -1.000568
2010-05-11 06:18:58 51°22.038 3°7.199 18.8952 0.068493 0.418683 -1.000568
2010-05-11 06:19:03 51°22.042 3°7.225 18.8906 0.068493 0.418683 -1.000568
2010-05-11 06:19:08 51°22.047 3°7.251 18.897 0.068493 0.418683 -1.000568
2010-05-11 06:19:14 51°22.051 3°7.282 18.8952 0.068493 0.418676 -1.000568
2010-05-11 06:19:18 51°22.055 3°7.303 18.8995 0.068493 0.418683 -1.000568
2010-05-11 06:19:23 51°22.058 3°7.33 18.8828 0.068493 0.418683 -1.035392
2010-05-11 06:19:29 51°22.065 3°7.361 18.8981 0.068493 0.418723 -1.000568
2010-05-11 06:19:33 51°22.068 3°7.382 18.8937 0.068493 0.418683 -1.035392
2010-05-11 06:19:38 51°22.072 3°7.408 18.8867 0.068493 0.418683 -1.035392
2010-05-11 06:19:43 51°22.077 3°7.434 18.9016 0.068493 0.418723 -1.000568
2010-05-11 06:19:49 51°22.082 3°7.466 18.8968 0.068493 0.418707 -1.000568
2010-05-11 06:19:53 51°22.085 3°7.486 18.9057 0.068493 0.418715 -1.000568
2010-05-11 06:19:58 51°22.089 3°7.513 18.9006 0.068493 0.418715 -1.000568
2010-05-11 06:20:03 51°22.094 3°7.539 18.9029 0.068493 0.418715 -1.035392
2010-05-11 06:20:09 51°22.098 3°7.57 18.8983 0.068493 0.418715 -1.035392
2010-05-11 06:20:13 51°22.101 3°7.591 18.8916 0.068493 0.418715 -1.035392
2010-05-11 06:20:18 51°22.105 3°7.617 18.9043 0.068493 0.41873 -1.000568
2010-05-11 06:20:23 51°22.11 3°7.644 18.9022 0.068493 0.418723 -1.000568
2010-05-11 06:20:29 51°22.114 3°7.675 18.8953 0.068493 0.418707 -1.000568
2010-05-11 06:20:33 51°22.118 3°7.696 18.899 0.068493 0.418738 -1.000568
2010-05-11 06:20:38 51°22.122 3°7.722 18.9097 0.068493 0.418738 -1.000568
2010-05-11 06:20:43 51°22.126 3°7.749 18.8958 0.068493 0.418723 -1.000568
2010-05-11 06:20:48 51°22.131 3°7.775 18.9168 0.068493 0.418738 -1.035392
2010-05-11 06:20:53 51°22.134 3°7.801 18.8912 0.068493 0.41873 -1.035392
2010-05-11 06:20:58 51°22.14 3°7.827 18.9195 0.068493 0.418738 -1.000568
2010-05-11 06:21:03 51°22.142 3°7.853 18.8911 0.068493 0.41877 -1.000568
2010-05-11 06:21:08 51°22.148 3°7.879 18.9174 0.068493 0.41877 -1.000568
2010-05-11 06:21:14 51°22.152 3°7.91 18.902 0.068493 0.418762 -1.000568
2010-05-11 06:21:18 51°22.156 3°7.931 18.9179 0.068493 0.418785 -1.035392
2010-05-11 06:21:23 51°22.16 3°7.957 18.9199 0.068493 0.418777 -1.000568
2010-05-11 06:21:29 51°22.165 3°7.988 18.9039 0.068493 0.41877 -1.000568
2010-05-11 06:21:33 51°22.168 3°8.009 18.9063 0.068493 0.418754 -1.000568
2010-05-11 06:21:38 51°22.172 3°8.033 18.9087 0.068493 0.418754 -1.000568
2010-05-11 06:21:43 51°22.176 3°8.055 18.9133 0.068493 0.418762 -0.965744
2010-05-11 06:21:49 51°22.18 3°8.081 18.9183 0.068493 0.418754 -1.000568
2010-05-11 06:21:53 51°22.182 3°8.096 18.9241 0.068493 0.418754 -1.000568
2010-05-11 06:21:58 51°22.185 3°8.115 18.9243 0.068493 0.418754 -1.035392
2010-05-11 06:22:03 51°22.188 3°8.132 18.9272 0.068493 0.41877 -1.035392
2010-05-11 06:22:09 51°22.191 3°8.151 18.9243 0.068493 0.41877 -1.035392
2010-05-11 06:22:13 51°22.195 3°8.162 18.9314 0.068493 0.41877 -1.000568
2010-05-11 06:22:18 51°22.198 3°8.176 18.923 0.068493 0.418777 -1.035392
2010-05-11 06:22:23 51°22.203 3°8.188 18.9334 0.068493 0.418801 -1.000568
2010-05-11 06:22:29 51°22.208 3°8.202 18.9277 0.068493 0.418785 -1.000568
2010-05-11 06:22:33 51°22.212 3°8.21 18.9355 0.068493 0.418793 -1.000568
2010-05-11 06:22:38 51°22.217 3°8.22 18.9249 0.068493 0.418793 -1.000568
2010-05-11 06:22:43 51°22.222 3°8.231 18.9324 0.068493 0.418793 -1.000568
2010-05-11 06:22:49 51°22.229 3°8.243 18.9381 0.068493 0.418785 -1.000568
2010-05-11 06:22:53 51°22.233 3°8.251 18.9317 0.068493 0.418777 -1.000568
2010-05-11 06:22:58 51°22.24 3°8.262 18.9378 0.068493 0.418777 -1.035392